<?xml version="1.0" encoding="UTF-8" standalone="no" ?><gpx xmlns="http://www.topografix.com/GPX/1/1" xmlns:gpxx="http://www.garmin.com/xmlschemas/GpxExtensions/v3" xmlns:gpxtpx="http://www.garmin.com/xmlschemas/TrackPointExtension/v1" creator="Foretrex 301" version="1.1" xmlns:xsi="http://www.w3.org/2001/XMLSchema-instance" xsi:schemaLocation="http://www.topografix.com/GPX/1/1 http://www.topografix.com/GPX/1/1/gpx.xsd http://www.garmin.com/xmlschemas/GpxExtensions/v3 http://www.garmin.com/xmlschemas/GpxExtensions/v3/GpxExtensionsv3.xsd"><metadata><link href="http://www.garmin.com"><text>Garmin International</text></link><time>2011-09-14T15:57:55Z</time></metadata><wpt lat="51.864057" lon="-2.075668"><ele>294.77</ele><time>2011-09-14T09:42:25Z</time><name>001</name><sym>Waypoint</sym></wpt><trk><name>ACTIVE LOG: 14 SEP 2011 08:50</name><trkseg><trkpt lat="51.851164" lon="-2.048355"><ele>209.22</ele><time>2011-09-14T08:50:48Z</time></trkpt><trkpt lat="51.851196" lon="-2.048390"><ele>208.26</ele><time>2011-09-14T08:50:59Z</time></trkpt><trkpt lat="51.851224" lon="-2.048427"><ele>207.30</ele><time>2011-09-14T08:51:04Z</time></trkpt><trkpt lat="51.851204" lon="-2.048643"><ele>207.30</ele><time>2011-09-14T08:51:14Z</time></trkpt><trkpt lat="51.851185" lon="-2.048766"><ele>207.30</ele><time>2011-09-14T08:51:20Z</time></trkpt><trkpt lat="51.851169" lon="-2.048826"><ele>206.82</ele><time>2011-09-14T08:51:23Z</time></trkpt><trkpt lat="51.851147" lon="-2.048916"><ele>207.30</ele><time>2011-09-14T08:51:28Z</time></trkpt><trkpt lat="51.851108" lon="-2.049039"><ele>208.26</ele><time>2011-09-14T08:51:35Z</time></trkpt><trkpt lat="51.851082" lon="-2.049150"><ele>207.78</ele><time>2011-09-14T08:51:42Z</time></trkpt><trkpt lat="51.851114" lon="-2.049312"><ele>208.26</ele><time>2011-09-14T08:51:51Z</time></trkpt><trkpt lat="51.851211" lon="-2.049401"><ele>210.67</ele><time>2011-09-14T08:52:00Z</time></trkpt><trkpt lat="51.851221" lon="-2.049405"><ele>211.15</ele><time>2011-09-14T08:52:01Z</time></trkpt><trkpt lat="51.851307" lon="-2.049374"><ele>214.51</ele><time>2011-09-14T08:52:10Z</time></trkpt><trkpt lat="51.851361" lon="-2.049276"><ele>215.95</ele><time>2011-09-14T08:52:18Z</time></trkpt><trkpt lat="51.851451" lon="-2.049075"><ele>219.32</ele><time>2011-09-14T08:52:30Z</time></trkpt><trkpt lat="51.851505" lon="-2.048926"><ele>220.28</ele><time>2011-09-14T08:52:37Z</time></trkpt><trkpt lat="51.851527" lon="-2.048867"><ele>220.76</ele><time>2011-09-14T08:52:41Z</time></trkpt><trkpt lat="51.851567" lon="-2.048769"><ele>219.32</ele><time>2011-09-14T08:52:48Z</time></trkpt><trkpt lat="51.851589" lon="-2.048686"><ele>218.84</ele><time>2011-09-14T08:52:54Z</time></trkpt><trkpt lat="51.851636" lon="-2.048622"><ele>217.40</ele><time>2011-09-14T08:53:00Z</time></trkpt><trkpt lat="51.851653" lon="-2.048593"><ele>217.40</ele><time>2011-09-14T08:53:03Z</time></trkpt><trkpt lat="51.851717" lon="-2.048420"><ele>218.36</ele><time>2011-09-14T08:53:13Z</time></trkpt><trkpt lat="51.851742" lon="-2.048306"><ele>219.32</ele><time>2011-09-14T08:53:21Z</time></trkpt><trkpt lat="51.851746" lon="-2.048294"><ele>219.32</ele><time>2011-09-14T08:53:22Z</time></trkpt><trkpt lat="51.851774" lon="-2.048243"><ele>220.28</ele><time>2011-09-14T08:53:26Z</time></trkpt><trkpt lat="51.851836" lon="-2.048123"><ele>220.28</ele><time>2011-09-14T08:53:34Z</time></trkpt><trkpt lat="51.851840" lon="-2.048106"><ele>219.80</ele><time>2011-09-14T08:53:35Z</time></trkpt><trkpt lat="51.851865" lon="-2.047969"><ele>218.84</ele><time>2011-09-14T08:53:44Z</time></trkpt><trkpt lat="51.851939" lon="-2.047857"><ele>217.40</ele><time>2011-09-14T08:53:52Z</time></trkpt><trkpt lat="51.852019" lon="-2.047728"><ele>216.91</ele><time>2011-09-14T08:54:01Z</time></trkpt><trkpt lat="51.852088" lon="-2.047698"><ele>214.99</ele><time>2011-09-14T08:54:07Z</time></trkpt><trkpt lat="51.852200" lon="-2.047634"><ele>215.95</ele><time>2011-09-14T08:54:16Z</time></trkpt><trkpt lat="51.852221" lon="-2.047622"><ele>214.99</ele><time>2011-09-14T08:54:18Z</time></trkpt><trkpt lat="51.852301" lon="-2.047592"><ele>214.99</ele><time>2011-09-14T08:54:26Z</time></trkpt><trkpt lat="51.852408" lon="-2.047552"><ele>214.99</ele><time>2011-09-14T08:54:35Z</time></trkpt><trkpt lat="51.852544" lon="-2.047604"><ele>217.88</ele><time>2011-09-14T08:54:45Z</time></trkpt><trkpt lat="51.852652" lon="-2.047664"><ele>218.36</ele><time>2011-09-14T08:54:54Z</time></trkpt><trkpt lat="51.852800" lon="-2.047678"><ele>219.32</ele><time>2011-09-14T08:55:06Z</time></trkpt><trkpt lat="51.852970" lon="-2.047635"><ele>218.36</ele><time>2011-09-14T08:55:20Z</time></trkpt><trkpt lat="51.852977" lon="-2.047630"><ele>218.36</ele><time>2011-09-14T08:55:21Z</time></trkpt><trkpt lat="51.852973" lon="-2.047545"><ele>218.84</ele><time>2011-09-14T08:55:29Z</time></trkpt><trkpt lat="51.852974" lon="-2.047551"><ele>217.88</ele><time>2011-09-14T08:55:39Z</time></trkpt><trkpt lat="51.852993" lon="-2.047584"><ele>216.43</ele><time>2011-09-14T08:55:43Z</time></trkpt><trkpt lat="51.853165" lon="-2.047588"><ele>214.03</ele><time>2011-09-14T08:55:55Z</time></trkpt><trkpt lat="51.853298" lon="-2.047596"><ele>214.51</ele><time>2011-09-14T08:56:05Z</time></trkpt><trkpt lat="51.853434" lon="-2.047619"><ele>214.03</ele><time>2011-09-14T08:56:16Z</time></trkpt><trkpt lat="51.853557" lon="-2.047639"><ele>213.55</ele><time>2011-09-14T08:56:25Z</time></trkpt><trkpt lat="51.853702" lon="-2.047665"><ele>213.55</ele><time>2011-09-14T08:56:35Z</time></trkpt><trkpt lat="51.853868" lon="-2.047699"><ele>213.55</ele><time>2011-09-14T08:56:46Z</time></trkpt><trkpt lat="51.854073" lon="-2.047735"><ele>213.07</ele><time>2011-09-14T08:57:01Z</time></trkpt><trkpt lat="51.854234" lon="-2.047744"><ele>214.03</ele><time>2011-09-14T08:57:13Z</time></trkpt><trkpt lat="51.854287" lon="-2.047738"><ele>213.55</ele><time>2011-09-14T08:57:19Z</time></trkpt><trkpt lat="51.854281" lon="-2.047734"><ele>213.55</ele><time>2011-09-14T08:57:23Z</time></trkpt><trkpt lat="51.854329" lon="-2.047786"><ele>214.51</ele><time>2011-09-14T08:57:30Z</time></trkpt><trkpt lat="51.854407" lon="-2.047807"><ele>215.47</ele><time>2011-09-14T08:57:37Z</time></trkpt><trkpt lat="51.854525" lon="-2.047851"><ele>216.43</ele><time>2011-09-14T08:57:47Z</time></trkpt><trkpt lat="51.854660" lon="-2.047916"><ele>217.40</ele><time>2011-09-14T08:58:00Z</time></trkpt><trkpt lat="51.854782" lon="-2.047982"><ele>218.36</ele><time>2011-09-14T08:58:12Z</time></trkpt><trkpt lat="51.854793" lon="-2.047990"><ele>218.84</ele><time>2011-09-14T08:58:13Z</time></trkpt><trkpt lat="51.854876" lon="-2.048060"><ele>218.84</ele><time>2011-09-14T08:58:22Z</time></trkpt><trkpt lat="51.854929" lon="-2.048111"><ele>220.28</ele><time>2011-09-14T08:58:28Z</time></trkpt><trkpt lat="51.855054" lon="-2.048183"><ele>221.24</ele><time>2011-09-14T08:58:38Z</time></trkpt><trkpt lat="51.855178" lon="-2.048238"><ele>221.72</ele><time>2011-09-14T08:58:48Z</time></trkpt><trkpt lat="51.855297" lon="-2.048305"><ele>222.68</ele><time>2011-09-14T08:58:57Z</time></trkpt><trkpt lat="51.855383" lon="-2.048353"><ele>222.68</ele><time>2011-09-14T08:59:05Z</time></trkpt><trkpt lat="51.855381" lon="-2.048329"><ele>220.28</ele><time>2011-09-14T08:59:14Z</time></trkpt><trkpt lat="51.855459" lon="-2.048374"><ele>220.28</ele><time>2011-09-14T08:59:22Z</time></trkpt><trkpt lat="51.855558" lon="-2.048443"><ele>220.28</ele><time>2011-09-14T08:59:31Z</time></trkpt><trkpt lat="51.855679" lon="-2.048475"><ele>221.72</ele><time>2011-09-14T08:59:40Z</time></trkpt><trkpt lat="51.855808" lon="-2.048544"><ele>222.68</ele><time>2011-09-14T08:59:50Z</time></trkpt><trkpt lat="51.855899" lon="-2.048592"><ele>224.12</ele><time>2011-09-14T08:59:59Z</time></trkpt><trkpt lat="51.855984" lon="-2.048628"><ele>224.12</ele><time>2011-09-14T09:00:07Z</time></trkpt><trkpt lat="51.856093" lon="-2.048676"><ele>226.53</ele><time>2011-09-14T09:00:18Z</time></trkpt><trkpt lat="51.856197" lon="-2.048713"><ele>227.49</ele><time>2011-09-14T09:00:27Z</time></trkpt><trkpt lat="51.856290" lon="-2.048759"><ele>227.97</ele><time>2011-09-14T09:00:36Z</time></trkpt><trkpt lat="51.856406" lon="-2.048814"><ele>228.93</ele><time>2011-09-14T09:00:47Z</time></trkpt><trkpt lat="51.856539" lon="-2.048863"><ele>228.93</ele><time>2011-09-14T09:00:59Z</time></trkpt><trkpt lat="51.856631" lon="-2.048888"><ele>229.89</ele><time>2011-09-14T09:01:09Z</time></trkpt><trkpt lat="51.856699" lon="-2.048925"><ele>229.89</ele><time>2011-09-14T09:01:16Z</time></trkpt><trkpt lat="51.856758" lon="-2.049005"><ele>230.37</ele><time>2011-09-14T09:01:25Z</time></trkpt><trkpt lat="51.856772" lon="-2.048999"><ele>229.89</ele><time>2011-09-14T09:01:36Z</time></trkpt><trkpt lat="51.856781" lon="-2.049002"><ele>229.41</ele><time>2011-09-14T09:01:42Z</time></trkpt><trkpt lat="51.856873" lon="-2.049043"><ele>229.89</ele><time>2011-09-14T09:01:51Z</time></trkpt><trkpt lat="51.856961" lon="-2.049087"><ele>229.89</ele><time>2011-09-14T09:01:59Z</time></trkpt><trkpt lat="51.857060" lon="-2.049134"><ele>229.89</ele><time>2011-09-14T09:02:08Z</time></trkpt><trkpt lat="51.857156" lon="-2.049185"><ele>230.37</ele><time>2011-09-14T09:02:17Z</time></trkpt><trkpt lat="51.857249" lon="-2.049235"><ele>230.37</ele><time>2011-09-14T09:02:25Z</time></trkpt><trkpt lat="51.857360" lon="-2.049299"><ele>230.85</ele><time>2011-09-14T09:02:35Z</time></trkpt><trkpt lat="51.857466" lon="-2.049351"><ele>231.81</ele><time>2011-09-14T09:02:45Z</time></trkpt><trkpt lat="51.857563" lon="-2.049407"><ele>232.30</ele><time>2011-09-14T09:02:54Z</time></trkpt><trkpt lat="51.857678" lon="-2.049467"><ele>233.26</ele><time>2011-09-14T09:03:05Z</time></trkpt><trkpt lat="51.857788" lon="-2.049527"><ele>233.26</ele><time>2011-09-14T09:03:15Z</time></trkpt><trkpt lat="51.857798" lon="-2.049533"><ele>233.26</ele><time>2011-09-14T09:03:16Z</time></trkpt><trkpt lat="51.857818" lon="-2.049542"><ele>233.26</ele><time>2011-09-14T09:03:18Z</time></trkpt><trkpt lat="51.857850" lon="-2.049570"><ele>233.26</ele><time>2011-09-14T09:03:22Z</time></trkpt><trkpt lat="51.857913" lon="-2.049592"><ele>233.26</ele><time>2011-09-14T09:03:28Z</time></trkpt><trkpt lat="51.858007" lon="-2.049668"><ele>233.26</ele><time>2011-09-14T09:03:38Z</time></trkpt><trkpt lat="51.858039" lon="-2.049695"><ele>233.74</ele><time>2011-09-14T09:03:41Z</time></trkpt><trkpt lat="51.858099" lon="-2.049748"><ele>234.22</ele><time>2011-09-14T09:03:47Z</time></trkpt><trkpt lat="51.858165" lon="-2.049791"><ele>235.18</ele><time>2011-09-14T09:03:54Z</time></trkpt><trkpt lat="51.858227" lon="-2.049833"><ele>235.66</ele><time>2011-09-14T09:04:01Z</time></trkpt><trkpt lat="51.858297" lon="-2.049865"><ele>236.14</ele><time>2011-09-14T09:04:08Z</time></trkpt><trkpt lat="51.858380" lon="-2.049906"><ele>238.54</ele><time>2011-09-14T09:04:15Z</time></trkpt><trkpt lat="51.858453" lon="-2.049981"><ele>240.47</ele><time>2011-09-14T09:04:23Z</time></trkpt><trkpt lat="51.858515" lon="-2.050023"><ele>241.91</ele><time>2011-09-14T09:04:30Z</time></trkpt><trkpt lat="51.858569" lon="-2.050076"><ele>241.43</ele><time>2011-09-14T09:04:36Z</time></trkpt><trkpt lat="51.858644" lon="-2.050143"><ele>239.99</ele><time>2011-09-14T09:04:44Z</time></trkpt><trkpt lat="51.858719" lon="-2.050216"><ele>240.47</ele><time>2011-09-14T09:04:51Z</time></trkpt><trkpt lat="51.858819" lon="-2.050302"><ele>242.39</ele><time>2011-09-14T09:05:00Z</time></trkpt><trkpt lat="51.858928" lon="-2.050389"><ele>246.72</ele><time>2011-09-14T09:05:09Z</time></trkpt><trkpt lat="51.859012" lon="-2.050427"><ele>249.60</ele><time>2011-09-14T09:05:16Z</time></trkpt><trkpt lat="51.859106" lon="-2.050477"><ele>251.04</ele><time>2011-09-14T09:05:24Z</time></trkpt><trkpt lat="51.859167" lon="-2.050537"><ele>251.04</ele><time>2011-09-14T09:05:33Z</time></trkpt><trkpt lat="51.859251" lon="-2.050610"><ele>251.52</ele><time>2011-09-14T09:05:42Z</time></trkpt><trkpt lat="51.859300" lon="-2.050701"><ele>246.23</ele><time>2011-09-14T09:05:53Z</time></trkpt><trkpt lat="51.859399" lon="-2.050794"><ele>245.75</ele><time>2011-09-14T09:06:02Z</time></trkpt><trkpt lat="51.859486" lon="-2.050864"><ele>247.20</ele><time>2011-09-14T09:06:11Z</time></trkpt><trkpt lat="51.859535" lon="-2.050906"><ele>247.20</ele><time>2011-09-14T09:06:15Z</time></trkpt><trkpt lat="51.859678" lon="-2.050981"><ele>248.64</ele><time>2011-09-14T09:06:25Z</time></trkpt><trkpt lat="51.859716" lon="-2.051005"><ele>246.72</ele><time>2011-09-14T09:06:30Z</time></trkpt><trkpt lat="51.859798" lon="-2.051024"><ele>244.79</ele><time>2011-09-14T09:06:40Z</time></trkpt><trkpt lat="51.859883" lon="-2.051085"><ele>243.35</ele><time>2011-09-14T09:06:48Z</time></trkpt><trkpt lat="51.859978" lon="-2.051138"><ele>243.35</ele><time>2011-09-14T09:06:56Z</time></trkpt><trkpt lat="51.860012" lon="-2.051135"><ele>242.87</ele><time>2011-09-14T09:07:04Z</time></trkpt><trkpt lat="51.859985" lon="-2.051160"><ele>243.83</ele><time>2011-09-14T09:07:09Z</time></trkpt><trkpt lat="51.859982" lon="-2.051186"><ele>244.31</ele><time>2011-09-14T09:07:11Z</time></trkpt><trkpt lat="51.859999" lon="-2.051288"><ele>244.79</ele><time>2011-09-14T09:07:17Z</time></trkpt><trkpt lat="51.860016" lon="-2.051369"><ele>245.27</ele><time>2011-09-14T09:07:22Z</time></trkpt><trkpt lat="51.860012" lon="-2.051408"><ele>245.75</ele><time>2011-09-14T09:07:25Z</time></trkpt><trkpt lat="51.859960" lon="-2.051491"><ele>247.20</ele><time>2011-09-14T09:07:32Z</time></trkpt><trkpt lat="51.859910" lon="-2.051626"><ele>248.64</ele><time>2011-09-14T09:07:42Z</time></trkpt><trkpt lat="51.859879" lon="-2.051740"><ele>249.60</ele><time>2011-09-14T09:07:52Z</time></trkpt><trkpt lat="51.859886" lon="-2.051861"><ele>251.52</ele><time>2011-09-14T09:08:01Z</time></trkpt><trkpt lat="51.859927" lon="-2.051920"><ele>251.52</ele><time>2011-09-14T09:08:08Z</time></trkpt><trkpt lat="51.859956" lon="-2.051923"><ele>251.52</ele><time>2011-09-14T09:08:11Z</time></trkpt><trkpt lat="51.860035" lon="-2.051967"><ele>250.08</ele><time>2011-09-14T09:08:19Z</time></trkpt><trkpt lat="51.860103" lon="-2.052027"><ele>249.12</ele><time>2011-09-14T09:08:26Z</time></trkpt><trkpt lat="51.860186" lon="-2.052155"><ele>249.60</ele><time>2011-09-14T09:08:36Z</time></trkpt><trkpt lat="51.860239" lon="-2.052262"><ele>250.08</ele><time>2011-09-14T09:08:44Z</time></trkpt><trkpt lat="51.860299" lon="-2.052338"><ele>249.60</ele><time>2011-09-14T09:08:51Z</time></trkpt><trkpt lat="51.860337" lon="-2.052389"><ele>248.64</ele><time>2011-09-14T09:08:56Z</time></trkpt><trkpt lat="51.860385" lon="-2.052490"><ele>246.23</ele><time>2011-09-14T09:09:04Z</time></trkpt><trkpt lat="51.860434" lon="-2.052575"><ele>246.72</ele><time>2011-09-14T09:09:11Z</time></trkpt><trkpt lat="51.860489" lon="-2.052664"><ele>246.23</ele><time>2011-09-14T09:09:20Z</time></trkpt><trkpt lat="51.860553" lon="-2.052747"><ele>246.72</ele><time>2011-09-14T09:09:28Z</time></trkpt><trkpt lat="51.860645" lon="-2.052854"><ele>247.20</ele><time>2011-09-14T09:09:38Z</time></trkpt><trkpt lat="51.860730" lon="-2.052954"><ele>248.64</ele><time>2011-09-14T09:09:47Z</time></trkpt><trkpt lat="51.860807" lon="-2.053050"><ele>248.16</ele><time>2011-09-14T09:09:56Z</time></trkpt><trkpt lat="51.860891" lon="-2.053191"><ele>249.60</ele><time>2011-09-14T09:10:06Z</time></trkpt><trkpt lat="51.860968" lon="-2.053307"><ele>249.12</ele><time>2011-09-14T09:10:15Z</time></trkpt><trkpt lat="51.861023" lon="-2.053403"><ele>249.12</ele><time>2011-09-14T09:10:23Z</time></trkpt><trkpt lat="51.861109" lon="-2.053509"><ele>250.56</ele><time>2011-09-14T09:10:33Z</time></trkpt><trkpt lat="51.861182" lon="-2.053594"><ele>251.04</ele><time>2011-09-14T09:10:41Z</time></trkpt><trkpt lat="51.861236" lon="-2.053709"><ele>251.04</ele><time>2011-09-14T09:10:51Z</time></trkpt><trkpt lat="51.861297" lon="-2.053818"><ele>252.00</ele><time>2011-09-14T09:10:59Z</time></trkpt><trkpt lat="51.861345" lon="-2.053913"><ele>252.00</ele><time>2011-09-14T09:11:06Z</time></trkpt><trkpt lat="51.861399" lon="-2.054002"><ele>251.52</ele><time>2011-09-14T09:11:14Z</time></trkpt><trkpt lat="51.861446" lon="-2.054086"><ele>251.52</ele><time>2011-09-14T09:11:22Z</time></trkpt><trkpt lat="51.861456" lon="-2.054122"><ele>251.04</ele><time>2011-09-14T09:11:25Z</time></trkpt><trkpt lat="51.861487" lon="-2.054248"><ele>251.52</ele><time>2011-09-14T09:11:34Z</time></trkpt><trkpt lat="51.861515" lon="-2.054357"><ele>251.52</ele><time>2011-09-14T09:11:42Z</time></trkpt><trkpt lat="51.861531" lon="-2.054402"><ele>251.52</ele><time>2011-09-14T09:11:46Z</time></trkpt><trkpt lat="51.861566" lon="-2.054530"><ele>251.52</ele><time>2011-09-14T09:11:54Z</time></trkpt><trkpt lat="51.861637" lon="-2.054629"><ele>252.96</ele><time>2011-09-14T09:12:01Z</time></trkpt><trkpt lat="51.861669" lon="-2.054674"><ele>253.93</ele><time>2011-09-14T09:12:04Z</time></trkpt><trkpt lat="51.861724" lon="-2.054780"><ele>256.33</ele><time>2011-09-14T09:12:11Z</time></trkpt><trkpt lat="51.861779" lon="-2.054876"><ele>257.77</ele><time>2011-09-14T09:12:19Z</time></trkpt><trkpt lat="51.861847" lon="-2.054977"><ele>258.25</ele><time>2011-09-14T09:12:29Z</time></trkpt><trkpt lat="51.861909" lon="-2.055067"><ele>258.25</ele><time>2011-09-14T09:12:38Z</time></trkpt><trkpt lat="51.861947" lon="-2.055161"><ele>257.29</ele><time>2011-09-14T09:12:46Z</time></trkpt><trkpt lat="51.861997" lon="-2.055239"><ele>258.25</ele><time>2011-09-14T09:12:54Z</time></trkpt><trkpt lat="51.862055" lon="-2.055341"><ele>260.17</ele><time>2011-09-14T09:13:04Z</time></trkpt><trkpt lat="51.862128" lon="-2.055444"><ele>261.14</ele><time>2011-09-14T09:13:14Z</time></trkpt><trkpt lat="51.862209" lon="-2.055524"><ele>261.14</ele><time>2011-09-14T09:13:24Z</time></trkpt><trkpt lat="51.862299" lon="-2.055573"><ele>263.06</ele><time>2011-09-14T09:13:34Z</time></trkpt><trkpt lat="51.862377" lon="-2.055625"><ele>262.58</ele><time>2011-09-14T09:13:42Z</time></trkpt><trkpt lat="51.862505" lon="-2.055701"><ele>264.50</ele><time>2011-09-14T09:13:53Z</time></trkpt><trkpt lat="51.862608" lon="-2.055779"><ele>265.94</ele><time>2011-09-14T09:14:04Z</time></trkpt><trkpt lat="51.862624" lon="-2.055790"><ele>265.46</ele><time>2011-09-14T09:14:06Z</time></trkpt><trkpt lat="51.862698" lon="-2.055833"><ele>265.94</ele><time>2011-09-14T09:14:14Z</time></trkpt><trkpt lat="51.862833" lon="-2.055876"><ele>266.90</ele><time>2011-09-14T09:14:27Z</time></trkpt><trkpt lat="51.862863" lon="-2.055868"><ele>268.35</ele><time>2011-09-14T09:14:36Z</time></trkpt><trkpt lat="51.862856" lon="-2.055869"><ele>267.38</ele><time>2011-09-14T09:14:57Z</time></trkpt><trkpt lat="51.862852" lon="-2.055913"><ele>267.38</ele><time>2011-09-14T09:15:04Z</time></trkpt><trkpt lat="51.862876" lon="-2.055975"><ele>267.86</ele><time>2011-09-14T09:15:10Z</time></trkpt><trkpt lat="51.862929" lon="-2.056067"><ele>268.35</ele><time>2011-09-14T09:15:18Z</time></trkpt><trkpt lat="51.863016" lon="-2.056159"><ele>269.79</ele><time>2011-09-14T09:15:30Z</time></trkpt><trkpt lat="51.863062" lon="-2.056203"><ele>269.79</ele><time>2011-09-14T09:15:41Z</time></trkpt><trkpt lat="51.863109" lon="-2.056194"><ele>269.31</ele><time>2011-09-14T09:15:52Z</time></trkpt><trkpt lat="51.863109" lon="-2.056199"><ele>269.79</ele><time>2011-09-14T09:16:07Z</time></trkpt><trkpt lat="51.863108" lon="-2.056198"><ele>269.31</ele><time>2011-09-14T09:17:16Z</time></trkpt><trkpt lat="51.863109" lon="-2.056206"><ele>269.79</ele><time>2011-09-14T09:17:24Z</time></trkpt><trkpt lat="51.863096" lon="-2.056199"><ele>270.27</ele><time>2011-09-14T09:17:36Z</time></trkpt><trkpt lat="51.863092" lon="-2.056197"><ele>270.27</ele><time>2011-09-14T09:17:52Z</time></trkpt><trkpt lat="51.863097" lon="-2.056202"><ele>271.23</ele><time>2011-09-14T09:18:09Z</time></trkpt><trkpt lat="51.863104" lon="-2.056210"><ele>271.71</ele><time>2011-09-14T09:18:48Z</time></trkpt><trkpt lat="51.863077" lon="-2.056257"><ele>270.75</ele><time>2011-09-14T09:18:53Z</time></trkpt><trkpt lat="51.863133" lon="-2.056400"><ele>269.31</ele><time>2011-09-14T09:19:01Z</time></trkpt><trkpt lat="51.863164" lon="-2.056438"><ele>267.86</ele><time>2011-09-14T09:19:15Z</time></trkpt><trkpt lat="51.863175" lon="-2.056465"><ele>267.38</ele><time>2011-09-14T09:19:17Z</time></trkpt><trkpt lat="51.863226" lon="-2.056589"><ele>267.86</ele><time>2011-09-14T09:19:24Z</time></trkpt><trkpt lat="51.863312" lon="-2.056706"><ele>270.75</ele><time>2011-09-14T09:19:32Z</time></trkpt><trkpt lat="51.863405" lon="-2.056822"><ele>272.19</ele><time>2011-09-14T09:19:41Z</time></trkpt><trkpt lat="51.863484" lon="-2.057017"><ele>274.11</ele><time>2011-09-14T09:19:52Z</time></trkpt><trkpt lat="51.863618" lon="-2.057242"><ele>275.56</ele><time>2011-09-14T09:20:07Z</time></trkpt><trkpt lat="51.863743" lon="-2.057437"><ele>276.04</ele><time>2011-09-14T09:20:20Z</time></trkpt><trkpt lat="51.863900" lon="-2.057663"><ele>277.96</ele><time>2011-09-14T09:20:35Z</time></trkpt><trkpt lat="51.863944" lon="-2.057715"><ele>278.44</ele><time>2011-09-14T09:20:39Z</time></trkpt><trkpt lat="51.863981" lon="-2.057776"><ele>279.40</ele><time>2011-09-14T09:20:43Z</time></trkpt><trkpt lat="51.864137" lon="-2.057970"><ele>280.36</ele><time>2011-09-14T09:20:58Z</time></trkpt><trkpt lat="51.864248" lon="-2.058091"><ele>279.88</ele><time>2011-09-14T09:21:09Z</time></trkpt><trkpt lat="51.864354" lon="-2.058194"><ele>280.36</ele><time>2011-09-14T09:21:18Z</time></trkpt><trkpt lat="51.864445" lon="-2.058337"><ele>279.88</ele><time>2011-09-14T09:21:29Z</time></trkpt><trkpt lat="51.864444" lon="-2.058360"><ele>279.88</ele><time>2011-09-14T09:21:41Z</time></trkpt><trkpt lat="51.864444" lon="-2.058362"><ele>279.88</ele><time>2011-09-14T09:21:46Z</time></trkpt><trkpt lat="51.864459" lon="-2.058409"><ele>279.40</ele><time>2011-09-14T09:21:50Z</time></trkpt><trkpt lat="51.864535" lon="-2.058572"><ele>279.40</ele><time>2011-09-14T09:22:01Z</time></trkpt><trkpt lat="51.864622" lon="-2.058704"><ele>279.88</ele><time>2011-09-14T09:22:10Z</time></trkpt><trkpt lat="51.864715" lon="-2.058777"><ele>280.84</ele><time>2011-09-14T09:22:20Z</time></trkpt><trkpt lat="51.864775" lon="-2.058843"><ele>280.84</ele><time>2011-09-14T09:22:29Z</time></trkpt><trkpt lat="51.864817" lon="-2.058925"><ele>280.84</ele><time>2011-09-14T09:22:37Z</time></trkpt><trkpt lat="51.864872" lon="-2.059049"><ele>281.32</ele><time>2011-09-14T09:22:47Z</time></trkpt><trkpt lat="51.864906" lon="-2.059156"><ele>280.84</ele><time>2011-09-14T09:22:56Z</time></trkpt><trkpt lat="51.864956" lon="-2.059294"><ele>281.80</ele><time>2011-09-14T09:23:06Z</time></trkpt><trkpt lat="51.865007" lon="-2.059387"><ele>280.84</ele><time>2011-09-14T09:23:13Z</time></trkpt><trkpt lat="51.865047" lon="-2.059499"><ele>280.36</ele><time>2011-09-14T09:23:21Z</time></trkpt><trkpt lat="51.865065" lon="-2.059541"><ele>279.40</ele><time>2011-09-14T09:23:30Z</time></trkpt><trkpt lat="51.865069" lon="-2.059551"><ele>279.40</ele><time>2011-09-14T09:23:41Z</time></trkpt><trkpt lat="51.865069" lon="-2.059556"><ele>279.40</ele><time>2011-09-14T09:23:46Z</time></trkpt><trkpt lat="51.865089" lon="-2.059784"><ele>278.44</ele><time>2011-09-14T09:24:00Z</time></trkpt><trkpt lat="51.865102" lon="-2.059969"><ele>278.44</ele><time>2011-09-14T09:24:13Z</time></trkpt><trkpt lat="51.865099" lon="-2.060096"><ele>278.44</ele><time>2011-09-14T09:24:23Z</time></trkpt><trkpt lat="51.865111" lon="-2.060251"><ele>278.92</ele><time>2011-09-14T09:24:32Z</time></trkpt><trkpt lat="51.865116" lon="-2.060398"><ele>279.40</ele><time>2011-09-14T09:24:41Z</time></trkpt><trkpt lat="51.865120" lon="-2.060437"><ele>279.88</ele><time>2011-09-14T09:24:48Z</time></trkpt><trkpt lat="51.865112" lon="-2.060579"><ele>278.92</ele><time>2011-09-14T09:24:57Z</time></trkpt><trkpt lat="51.865093" lon="-2.060771"><ele>278.44</ele><time>2011-09-14T09:25:08Z</time></trkpt><trkpt lat="51.865086" lon="-2.060896"><ele>278.92</ele><time>2011-09-14T09:25:16Z</time></trkpt><trkpt lat="51.865069" lon="-2.061019"><ele>278.92</ele><time>2011-09-14T09:25:25Z</time></trkpt><trkpt lat="51.865053" lon="-2.061196"><ele>279.40</ele><time>2011-09-14T09:25:35Z</time></trkpt><trkpt lat="51.865040" lon="-2.061345"><ele>279.40</ele><time>2011-09-14T09:25:43Z</time></trkpt><trkpt lat="51.865075" lon="-2.061467"><ele>279.40</ele><time>2011-09-14T09:25:52Z</time></trkpt><trkpt lat="51.865093" lon="-2.061578"><ele>277.96</ele><time>2011-09-14T09:26:01Z</time></trkpt><trkpt lat="51.865098" lon="-2.061611"><ele>276.52</ele><time>2011-09-14T09:26:09Z</time></trkpt><trkpt lat="51.865129" lon="-2.061700"><ele>276.04</ele><time>2011-09-14T09:26:16Z</time></trkpt><trkpt lat="51.865130" lon="-2.061713"><ele>276.04</ele><time>2011-09-14T09:26:17Z</time></trkpt><trkpt lat="51.865125" lon="-2.061808"><ele>276.52</ele><time>2011-09-14T09:26:26Z</time></trkpt><trkpt lat="51.865126" lon="-2.061826"><ele>276.52</ele><time>2011-09-14T09:26:38Z</time></trkpt><trkpt lat="51.865112" lon="-2.061902"><ele>276.52</ele><time>2011-09-14T09:26:50Z</time></trkpt><trkpt lat="51.865061" lon="-2.062091"><ele>276.04</ele><time>2011-09-14T09:27:02Z</time></trkpt><trkpt lat="51.865018" lon="-2.062220"><ele>276.52</ele><time>2011-09-14T09:27:11Z</time></trkpt><trkpt lat="51.864985" lon="-2.062404"><ele>277.00</ele><time>2011-09-14T09:27:22Z</time></trkpt><trkpt lat="51.864976" lon="-2.062524"><ele>277.48</ele><time>2011-09-14T09:27:30Z</time></trkpt><trkpt lat="51.864947" lon="-2.062667"><ele>277.48</ele><time>2011-09-14T09:27:39Z</time></trkpt><trkpt lat="51.864924" lon="-2.062836"><ele>278.92</ele><time>2011-09-14T09:27:49Z</time></trkpt><trkpt lat="51.864895" lon="-2.062954"><ele>279.40</ele><time>2011-09-14T09:27:56Z</time></trkpt><trkpt lat="51.864898" lon="-2.063141"><ele>279.40</ele><time>2011-09-14T09:28:06Z</time></trkpt><trkpt lat="51.864900" lon="-2.063158"><ele>279.40</ele><time>2011-09-14T09:28:07Z</time></trkpt><trkpt lat="51.864910" lon="-2.063280"><ele>277.00</ele><time>2011-09-14T09:28:14Z</time></trkpt><trkpt lat="51.864890" lon="-2.063390"><ele>277.00</ele><time>2011-09-14T09:28:20Z</time></trkpt><trkpt lat="51.864837" lon="-2.063516"><ele>278.92</ele><time>2011-09-14T09:28:29Z</time></trkpt><trkpt lat="51.864753" lon="-2.063605"><ele>279.40</ele><time>2011-09-14T09:28:39Z</time></trkpt><trkpt lat="51.864699" lon="-2.063757"><ele>280.36</ele><time>2011-09-14T09:28:48Z</time></trkpt><trkpt lat="51.864723" lon="-2.063976"><ele>280.84</ele><time>2011-09-14T09:29:00Z</time></trkpt><trkpt lat="51.864781" lon="-2.064143"><ele>281.32</ele><time>2011-09-14T09:29:11Z</time></trkpt><trkpt lat="51.864803" lon="-2.064327"><ele>279.40</ele><time>2011-09-14T09:29:22Z</time></trkpt><trkpt lat="51.864815" lon="-2.064426"><ele>277.48</ele><time>2011-09-14T09:29:29Z</time></trkpt><trkpt lat="51.864809" lon="-2.064551"><ele>277.48</ele><time>2011-09-14T09:29:37Z</time></trkpt><trkpt lat="51.864807" lon="-2.064720"><ele>277.48</ele><time>2011-09-14T09:29:45Z</time></trkpt><trkpt lat="51.864796" lon="-2.064863"><ele>277.96</ele><time>2011-09-14T09:29:53Z</time></trkpt><trkpt lat="51.864795" lon="-2.065012"><ele>278.44</ele><time>2011-09-14T09:30:01Z</time></trkpt><trkpt lat="51.864790" lon="-2.065165"><ele>278.44</ele><time>2011-09-14T09:30:09Z</time></trkpt><trkpt lat="51.864799" lon="-2.065315"><ele>278.92</ele><time>2011-09-14T09:30:18Z</time></trkpt><trkpt lat="51.864833" lon="-2.065468"><ele>278.44</ele><time>2011-09-14T09:30:27Z</time></trkpt><trkpt lat="51.864880" lon="-2.065720"><ele>278.44</ele><time>2011-09-14T09:30:40Z</time></trkpt><trkpt lat="51.864913" lon="-2.065834"><ele>278.44</ele><time>2011-09-14T09:30:49Z</time></trkpt><trkpt lat="51.864924" lon="-2.065870"><ele>278.92</ele><time>2011-09-14T09:30:57Z</time></trkpt><trkpt lat="51.864928" lon="-2.065960"><ele>278.92</ele><time>2011-09-14T09:31:04Z</time></trkpt><trkpt lat="51.864939" lon="-2.066062"><ele>278.92</ele><time>2011-09-14T09:31:10Z</time></trkpt><trkpt lat="51.864952" lon="-2.066127"><ele>278.92</ele><time>2011-09-14T09:31:15Z</time></trkpt><trkpt lat="51.864970" lon="-2.066271"><ele>278.44</ele><time>2011-09-14T09:31:24Z</time></trkpt><trkpt lat="51.864994" lon="-2.066328"><ele>278.44</ele><time>2011-09-14T09:31:30Z</time></trkpt><trkpt lat="51.864997" lon="-2.066339"><ele>278.44</ele><time>2011-09-14T09:31:42Z</time></trkpt><trkpt lat="51.865017" lon="-2.066544"><ele>280.36</ele><time>2011-09-14T09:31:52Z</time></trkpt><trkpt lat="51.865043" lon="-2.066653"><ele>280.36</ele><time>2011-09-14T09:31:59Z</time></trkpt><trkpt lat="51.865052" lon="-2.066726"><ele>280.36</ele><time>2011-09-14T09:32:10Z</time></trkpt><trkpt lat="51.865070" lon="-2.066913"><ele>279.88</ele><time>2011-09-14T09:32:18Z</time></trkpt><trkpt lat="51.865081" lon="-2.067096"><ele>280.36</ele><time>2011-09-14T09:32:26Z</time></trkpt><trkpt lat="51.865082" lon="-2.067260"><ele>280.84</ele><time>2011-09-14T09:32:35Z</time></trkpt><trkpt lat="51.865087" lon="-2.067349"><ele>281.32</ele><time>2011-09-14T09:32:40Z</time></trkpt><trkpt lat="51.865108" lon="-2.067417"><ele>281.80</ele><time>2011-09-14T09:32:44Z</time></trkpt><trkpt lat="51.865138" lon="-2.067536"><ele>281.80</ele><time>2011-09-14T09:32:52Z</time></trkpt><trkpt lat="51.865144" lon="-2.067698"><ele>282.28</ele><time>2011-09-14T09:33:00Z</time></trkpt><trkpt lat="51.865198" lon="-2.067883"><ele>281.32</ele><time>2011-09-14T09:33:09Z</time></trkpt><trkpt lat="51.865249" lon="-2.068139"><ele>280.84</ele><time>2011-09-14T09:33:22Z</time></trkpt><trkpt lat="51.865303" lon="-2.068269"><ele>281.32</ele><time>2011-09-14T09:33:31Z</time></trkpt><trkpt lat="51.865354" lon="-2.068432"><ele>281.80</ele><time>2011-09-14T09:33:41Z</time></trkpt><trkpt lat="51.865390" lon="-2.068540"><ele>281.32</ele><time>2011-09-14T09:33:49Z</time></trkpt><trkpt lat="51.865413" lon="-2.068673"><ele>281.32</ele><time>2011-09-14T09:33:57Z</time></trkpt><trkpt lat="51.865472" lon="-2.068842"><ele>280.84</ele><time>2011-09-14T09:34:07Z</time></trkpt><trkpt lat="51.865516" lon="-2.068993"><ele>280.84</ele><time>2011-09-14T09:34:16Z</time></trkpt><trkpt lat="51.865529" lon="-2.069036"><ele>281.32</ele><time>2011-09-14T09:34:21Z</time></trkpt><trkpt lat="51.865532" lon="-2.069139"><ele>280.84</ele><time>2011-09-14T09:34:30Z</time></trkpt><trkpt lat="51.865515" lon="-2.069302"><ele>280.36</ele><time>2011-09-14T09:34:40Z</time></trkpt><trkpt lat="51.865501" lon="-2.069497"><ele>280.36</ele><time>2011-09-14T09:34:51Z</time></trkpt><trkpt lat="51.865492" lon="-2.069694"><ele>280.84</ele><time>2011-09-14T09:35:02Z</time></trkpt><trkpt lat="51.865481" lon="-2.069858"><ele>281.32</ele><time>2011-09-14T09:35:11Z</time></trkpt><trkpt lat="51.865450" lon="-2.069963"><ele>280.84</ele><time>2011-09-14T09:35:18Z</time></trkpt><trkpt lat="51.865379" lon="-2.070134"><ele>279.40</ele><time>2011-09-14T09:35:31Z</time></trkpt><trkpt lat="51.865298" lon="-2.070281"><ele>279.88</ele><time>2011-09-14T09:35:42Z</time></trkpt><trkpt lat="51.865233" lon="-2.070419"><ele>280.36</ele><time>2011-09-14T09:35:52Z</time></trkpt><trkpt lat="51.865202" lon="-2.070574"><ele>280.84</ele><time>2011-09-14T09:36:01Z</time></trkpt><trkpt lat="51.865152" lon="-2.070689"><ele>282.28</ele><time>2011-09-14T09:36:10Z</time></trkpt><trkpt lat="51.865121" lon="-2.070728"><ele>283.73</ele><time>2011-09-14T09:36:14Z</time></trkpt><trkpt lat="51.865105" lon="-2.070808"><ele>285.65</ele><time>2011-09-14T09:36:22Z</time></trkpt><trkpt lat="51.865110" lon="-2.070816"><ele>285.17</ele><time>2011-09-14T09:36:32Z</time></trkpt><trkpt lat="51.865089" lon="-2.070902"><ele>285.17</ele><time>2011-09-14T09:36:39Z</time></trkpt><trkpt lat="51.865048" lon="-2.071029"><ele>284.69</ele><time>2011-09-14T09:36:48Z</time></trkpt><trkpt lat="51.865031" lon="-2.071073"><ele>284.69</ele><time>2011-09-14T09:36:51Z</time></trkpt><trkpt lat="51.864975" lon="-2.071183"><ele>285.65</ele><time>2011-09-14T09:37:00Z</time></trkpt><trkpt lat="51.864971" lon="-2.071197"><ele>285.65</ele><time>2011-09-14T09:37:01Z</time></trkpt><trkpt lat="51.864949" lon="-2.071300"><ele>285.65</ele><time>2011-09-14T09:37:08Z</time></trkpt><trkpt lat="51.864939" lon="-2.071352"><ele>287.57</ele><time>2011-09-14T09:37:17Z</time></trkpt><trkpt lat="51.864931" lon="-2.071418"><ele>287.09</ele><time>2011-09-14T09:37:33Z</time></trkpt><trkpt lat="51.864909" lon="-2.071561"><ele>286.13</ele><time>2011-09-14T09:37:40Z</time></trkpt><trkpt lat="51.864908" lon="-2.071710"><ele>286.61</ele><time>2011-09-14T09:37:49Z</time></trkpt><trkpt lat="51.864928" lon="-2.071858"><ele>288.05</ele><time>2011-09-14T09:37:59Z</time></trkpt><trkpt lat="51.864929" lon="-2.071892"><ele>288.05</ele><time>2011-09-14T09:38:01Z</time></trkpt><trkpt lat="51.864935" lon="-2.071962"><ele>288.05</ele><time>2011-09-14T09:38:05Z</time></trkpt><trkpt lat="51.864934" lon="-2.072014"><ele>288.05</ele><time>2011-09-14T09:38:08Z</time></trkpt><trkpt lat="51.864932" lon="-2.072043"><ele>288.05</ele><time>2011-09-14T09:38:10Z</time></trkpt><trkpt lat="51.864922" lon="-2.072174"><ele>288.05</ele><time>2011-09-14T09:38:19Z</time></trkpt><trkpt lat="51.864887" lon="-2.072278"><ele>289.49</ele><time>2011-09-14T09:38:27Z</time></trkpt><trkpt lat="51.864869" lon="-2.072308"><ele>290.46</ele><time>2011-09-14T09:38:30Z</time></trkpt><trkpt lat="51.864759" lon="-2.072424"><ele>292.86</ele><time>2011-09-14T09:38:42Z</time></trkpt><trkpt lat="51.864713" lon="-2.072518"><ele>292.86</ele><time>2011-09-14T09:38:51Z</time></trkpt><trkpt lat="51.864649" lon="-2.072692"><ele>292.86</ele><time>2011-09-14T09:39:02Z</time></trkpt><trkpt lat="51.864638" lon="-2.072783"><ele>294.30</ele><time>2011-09-14T09:39:09Z</time></trkpt><trkpt lat="51.864637" lon="-2.072838"><ele>294.78</ele><time>2011-09-14T09:39:13Z</time></trkpt><trkpt lat="51.864636" lon="-2.072877"><ele>296.22</ele><time>2011-09-14T09:39:17Z</time></trkpt><trkpt lat="51.864591" lon="-2.072989"><ele>297.18</ele><time>2011-09-14T09:39:26Z</time></trkpt><trkpt lat="51.864567" lon="-2.073076"><ele>295.26</ele><time>2011-09-14T09:39:33Z</time></trkpt><trkpt lat="51.864554" lon="-2.073243"><ele>292.38</ele><time>2011-09-14T09:39:42Z</time></trkpt><trkpt lat="51.864530" lon="-2.073389"><ele>291.90</ele><time>2011-09-14T09:39:50Z</time></trkpt><trkpt lat="51.864528" lon="-2.073406"><ele>291.42</ele><time>2011-09-14T09:39:51Z</time></trkpt><trkpt lat="51.864517" lon="-2.073581"><ele>290.46</ele><time>2011-09-14T09:40:01Z</time></trkpt><trkpt lat="51.864465" lon="-2.073755"><ele>291.42</ele><time>2011-09-14T09:40:12Z</time></trkpt><trkpt lat="51.864423" lon="-2.073866"><ele>290.46</ele><time>2011-09-14T09:40:21Z</time></trkpt><trkpt lat="51.864381" lon="-2.074000"><ele>289.97</ele><time>2011-09-14T09:40:30Z</time></trkpt><trkpt lat="51.864370" lon="-2.074063"><ele>289.49</ele><time>2011-09-14T09:40:36Z</time></trkpt><trkpt lat="51.864343" lon="-2.074157"><ele>289.49</ele><time>2011-09-14T09:40:42Z</time></trkpt><trkpt lat="51.864327" lon="-2.074373"><ele>290.46</ele><time>2011-09-14T09:40:55Z</time></trkpt><trkpt lat="51.864320" lon="-2.074552"><ele>289.97</ele><time>2011-09-14T09:41:05Z</time></trkpt><trkpt lat="51.864308" lon="-2.074711"><ele>289.97</ele><time>2011-09-14T09:41:15Z</time></trkpt><trkpt lat="51.864284" lon="-2.074913"><ele>289.49</ele><time>2011-09-14T09:41:27Z</time></trkpt><trkpt lat="51.864262" lon="-2.075115"><ele>289.97</ele><time>2011-09-14T09:41:38Z</time></trkpt><trkpt lat="51.864264" lon="-2.075228"><ele>290.94</ele><time>2011-09-14T09:41:46Z</time></trkpt><trkpt lat="51.864246" lon="-2.075381"><ele>290.94</ele><time>2011-09-14T09:41:55Z</time></trkpt><trkpt lat="51.864251" lon="-2.075597"><ele>292.38</ele><time>2011-09-14T09:42:06Z</time></trkpt><trkpt lat="51.864148" lon="-2.075648"><ele>293.82</ele><time>2011-09-14T09:42:16Z</time></trkpt><trkpt lat="51.864057" lon="-2.075668"><ele>294.78</ele><time>2011-09-14T09:42:24Z</time></trkpt><trkpt lat="51.864065" lon="-2.075667"><ele>293.82</ele><time>2011-09-14T09:42:41Z</time></trkpt><trkpt lat="51.864054" lon="-2.075684"><ele>292.86</ele><time>2011-09-14T09:42:47Z</time></trkpt><trkpt lat="51.864058" lon="-2.075694"><ele>292.86</ele><time>2011-09-14T09:43:13Z</time></trkpt><trkpt lat="51.864058" lon="-2.075693"><ele>292.86</ele><time>2011-09-14T09:43:29Z</time></trkpt><trkpt lat="51.864142" lon="-2.075677"><ele>292.86</ele><time>2011-09-14T09:43:35Z</time></trkpt><trkpt lat="51.864252" lon="-2.075642"><ele>292.38</ele><time>2011-09-14T09:43:40Z</time></trkpt><trkpt lat="51.864263" lon="-2.075636"><ele>292.38</ele><time>2011-09-14T09:43:42Z</time></trkpt><trkpt lat="51.864279" lon="-2.075814"><ele>289.97</ele><time>2011-09-14T09:43:52Z</time></trkpt><trkpt lat="51.864302" lon="-2.076002"><ele>289.97</ele><time>2011-09-14T09:44:01Z</time></trkpt><trkpt lat="51.864341" lon="-2.076276"><ele>290.46</ele><time>2011-09-14T09:44:13Z</time></trkpt><trkpt lat="51.864379" lon="-2.076597"><ele>290.94</ele><time>2011-09-14T09:44:28Z</time></trkpt><trkpt lat="51.864407" lon="-2.076847"><ele>289.97</ele><time>2011-09-14T09:44:39Z</time></trkpt><trkpt lat="51.864430" lon="-2.077145"><ele>290.46</ele><time>2011-09-14T09:44:52Z</time></trkpt><trkpt lat="51.864441" lon="-2.077290"><ele>288.53</ele><time>2011-09-14T09:45:00Z</time></trkpt><trkpt lat="51.864450" lon="-2.077313"><ele>287.57</ele><time>2011-09-14T09:45:13Z</time></trkpt><trkpt lat="51.864464" lon="-2.077339"><ele>287.09</ele><time>2011-09-14T09:45:15Z</time></trkpt><trkpt lat="51.864552" lon="-2.077433"><ele>286.13</ele><time>2011-09-14T09:45:26Z</time></trkpt><trkpt lat="51.864569" lon="-2.077446"><ele>286.13</ele><time>2011-09-14T09:45:35Z</time></trkpt><trkpt lat="51.864566" lon="-2.077443"><ele>286.13</ele><time>2011-09-14T09:46:21Z</time></trkpt><trkpt lat="51.864566" lon="-2.077421"><ele>286.61</ele><time>2011-09-14T09:47:03Z</time></trkpt><trkpt lat="51.864552" lon="-2.077413"><ele>287.09</ele><time>2011-09-14T09:47:16Z</time></trkpt><trkpt lat="51.864515" lon="-2.077338"><ele>285.65</ele><time>2011-09-14T09:47:26Z</time></trkpt><trkpt lat="51.864509" lon="-2.077349"><ele>286.13</ele><time>2011-09-14T09:47:36Z</time></trkpt><trkpt lat="51.864508" lon="-2.077352"><ele>285.65</ele><time>2011-09-14T09:48:36Z</time></trkpt><trkpt lat="51.864447" lon="-2.077440"><ele>286.61</ele><time>2011-09-14T09:48:44Z</time></trkpt><trkpt lat="51.864374" lon="-2.077586"><ele>287.57</ele><time>2011-09-14T09:48:52Z</time></trkpt><trkpt lat="51.864358" lon="-2.077648"><ele>287.57</ele><time>2011-09-14T09:48:58Z</time></trkpt><trkpt lat="51.864329" lon="-2.077735"><ele>287.57</ele><time>2011-09-14T09:49:05Z</time></trkpt><trkpt lat="51.864326" lon="-2.077784"><ele>287.57</ele><time>2011-09-14T09:49:14Z</time></trkpt><trkpt lat="51.864326" lon="-2.077793"><ele>287.57</ele><time>2011-09-14T09:49:40Z</time></trkpt><trkpt lat="51.864325" lon="-2.077795"><ele>287.09</ele><time>2011-09-14T09:49:56Z</time></trkpt><trkpt lat="51.864301" lon="-2.077818"><ele>284.69</ele><time>2011-09-14T09:50:04Z</time></trkpt><trkpt lat="51.864250" lon="-2.077859"><ele>284.69</ele><time>2011-09-14T09:50:13Z</time></trkpt><trkpt lat="51.864203" lon="-2.077881"><ele>284.69</ele><time>2011-09-14T09:50:27Z</time></trkpt><trkpt lat="51.864057" lon="-2.077924"><ele>283.25</ele><time>2011-09-14T09:50:34Z</time></trkpt><trkpt lat="51.863817" lon="-2.078034"><ele>280.84</ele><time>2011-09-14T09:50:41Z</time></trkpt><trkpt lat="51.863589" lon="-2.078149"><ele>277.48</ele><time>2011-09-14T09:50:47Z</time></trkpt><trkpt lat="51.863385" lon="-2.078318"><ele>275.07</ele><time>2011-09-14T09:50:54Z</time></trkpt><trkpt lat="51.863323" lon="-2.078414"><ele>273.63</ele><time>2011-09-14T09:50:58Z</time></trkpt><trkpt lat="51.863303" lon="-2.078542"><ele>274.11</ele><time>2011-09-14T09:51:06Z</time></trkpt><trkpt lat="51.863297" lon="-2.078593"><ele>275.07</ele><time>2011-09-14T09:51:12Z</time></trkpt><trkpt lat="51.863251" lon="-2.078704"><ele>274.59</ele><time>2011-09-14T09:51:19Z</time></trkpt><trkpt lat="51.863244" lon="-2.078767"><ele>273.15</ele><time>2011-09-14T09:51:25Z</time></trkpt><trkpt lat="51.863343" lon="-2.078873"><ele>269.79</ele><time>2011-09-14T09:51:32Z</time></trkpt><trkpt lat="51.863501" lon="-2.078928"><ele>266.42</ele><time>2011-09-14T09:51:38Z</time></trkpt><trkpt lat="51.863626" lon="-2.079032"><ele>264.50</ele><time>2011-09-14T09:51:48Z</time></trkpt><trkpt lat="51.863726" lon="-2.079112"><ele>264.02</ele><time>2011-09-14T09:51:56Z</time></trkpt><trkpt lat="51.863829" lon="-2.079171"><ele>264.50</ele><time>2011-09-14T09:52:07Z</time></trkpt><trkpt lat="51.863818" lon="-2.079186"><ele>264.02</ele><time>2011-09-14T09:52:17Z</time></trkpt><trkpt lat="51.863834" lon="-2.079158"><ele>263.54</ele><time>2011-09-14T09:52:44Z</time></trkpt><trkpt lat="51.863853" lon="-2.079142"><ele>262.10</ele><time>2011-09-14T09:52:54Z</time></trkpt><trkpt lat="51.863854" lon="-2.079139"><ele>262.58</ele><time>2011-09-14T09:52:59Z</time></trkpt><trkpt lat="51.863915" lon="-2.079100"><ele>263.06</ele><time>2011-09-14T09:53:06Z</time></trkpt><trkpt lat="51.863924" lon="-2.079084"><ele>263.54</ele><time>2011-09-14T09:53:10Z</time></trkpt><trkpt lat="51.864017" lon="-2.079023"><ele>265.46</ele><time>2011-09-14T09:53:18Z</time></trkpt><trkpt lat="51.864114" lon="-2.079011"><ele>266.90</ele><time>2011-09-14T09:53:28Z</time></trkpt><trkpt lat="51.864121" lon="-2.079016"><ele>266.90</ele><time>2011-09-14T09:53:29Z</time></trkpt><trkpt lat="51.864180" lon="-2.079012"><ele>266.42</ele><time>2011-09-14T09:53:39Z</time></trkpt><trkpt lat="51.864171" lon="-2.079015"><ele>265.94</ele><time>2011-09-14T09:53:51Z</time></trkpt><trkpt lat="51.864144" lon="-2.078962"><ele>264.02</ele><time>2011-09-14T09:54:00Z</time></trkpt><trkpt lat="51.864117" lon="-2.078969"><ele>262.58</ele><time>2011-09-14T09:54:07Z</time></trkpt><trkpt lat="51.864038" lon="-2.078994"><ele>260.17</ele><time>2011-09-14T09:54:17Z</time></trkpt><trkpt lat="51.864041" lon="-2.078994"><ele>258.25</ele><time>2011-09-14T09:54:24Z</time></trkpt><trkpt lat="51.864016" lon="-2.079012"><ele>257.77</ele><time>2011-09-14T09:54:27Z</time></trkpt><trkpt lat="51.863986" lon="-2.079067"><ele>260.17</ele><time>2011-09-14T09:54:34Z</time></trkpt><trkpt lat="51.864011" lon="-2.079098"><ele>259.69</ele><time>2011-09-14T09:54:42Z</time></trkpt><trkpt lat="51.864052" lon="-2.079112"><ele>259.21</ele><time>2011-09-14T09:54:51Z</time></trkpt><trkpt lat="51.864058" lon="-2.079109"><ele>258.73</ele><time>2011-09-14T09:55:04Z</time></trkpt><trkpt lat="51.864047" lon="-2.079103"><ele>258.73</ele><time>2011-09-14T09:55:15Z</time></trkpt><trkpt lat="51.864040" lon="-2.079102"><ele>258.73</ele><time>2011-09-14T09:55:16Z</time></trkpt><trkpt lat="51.863997" lon="-2.079021"><ele>264.02</ele><time>2011-09-14T09:55:26Z</time></trkpt><trkpt lat="51.863999" lon="-2.079006"><ele>263.06</ele><time>2011-09-14T09:55:36Z</time></trkpt><trkpt lat="51.863971" lon="-2.079001"><ele>263.06</ele><time>2011-09-14T09:55:46Z</time></trkpt><trkpt lat="51.863898" lon="-2.079009"><ele>263.06</ele><time>2011-09-14T09:55:56Z</time></trkpt><trkpt lat="51.863860" lon="-2.079021"><ele>262.58</ele><time>2011-09-14T09:56:02Z</time></trkpt><trkpt lat="51.863825" lon="-2.079039"><ele>261.62</ele><time>2011-09-14T09:56:05Z</time></trkpt><trkpt lat="51.863790" lon="-2.079050"><ele>261.62</ele><time>2011-09-14T09:56:08Z</time></trkpt><trkpt lat="51.863686" lon="-2.078992"><ele>263.54</ele><time>2011-09-14T09:56:17Z</time></trkpt><trkpt lat="51.863603" lon="-2.078927"><ele>264.98</ele><time>2011-09-14T09:56:25Z</time></trkpt><trkpt lat="51.863535" lon="-2.078875"><ele>266.42</ele><time>2011-09-14T09:56:32Z</time></trkpt><trkpt lat="51.863455" lon="-2.078835"><ele>266.90</ele><time>2011-09-14T09:56:40Z</time></trkpt><trkpt lat="51.863386" lon="-2.078802"><ele>267.38</ele><time>2011-09-14T09:56:48Z</time></trkpt><trkpt lat="51.863332" lon="-2.078757"><ele>268.83</ele><time>2011-09-14T09:56:57Z</time></trkpt><trkpt lat="51.863264" lon="-2.078722"><ele>272.67</ele><time>2011-09-14T09:57:06Z</time></trkpt><trkpt lat="51.863193" lon="-2.078704"><ele>274.11</ele><time>2011-09-14T09:57:14Z</time></trkpt><trkpt lat="51.863083" lon="-2.078735"><ele>273.15</ele><time>2011-09-14T09:57:23Z</time></trkpt><trkpt lat="51.862975" lon="-2.078799"><ele>273.15</ele><time>2011-09-14T09:57:33Z</time></trkpt><trkpt lat="51.862866" lon="-2.078861"><ele>272.67</ele><time>2011-09-14T09:57:43Z</time></trkpt><trkpt lat="51.862767" lon="-2.078927"><ele>271.71</ele><time>2011-09-14T09:57:53Z</time></trkpt><trkpt lat="51.862701" lon="-2.078968"><ele>272.19</ele><time>2011-09-14T09:58:00Z</time></trkpt><trkpt lat="51.862644" lon="-2.079025"><ele>271.23</ele><time>2011-09-14T09:58:08Z</time></trkpt><trkpt lat="51.862545" lon="-2.079090"><ele>270.75</ele><time>2011-09-14T09:58:19Z</time></trkpt><trkpt lat="51.862448" lon="-2.079138"><ele>270.75</ele><time>2011-09-14T09:58:29Z</time></trkpt><trkpt lat="51.862351" lon="-2.079177"><ele>270.27</ele><time>2011-09-14T09:58:39Z</time></trkpt><trkpt lat="51.862255" lon="-2.079196"><ele>269.79</ele><time>2011-09-14T09:58:47Z</time></trkpt><trkpt lat="51.862177" lon="-2.079231"><ele>268.83</ele><time>2011-09-14T09:58:55Z</time></trkpt><trkpt lat="51.862159" lon="-2.079241"><ele>269.31</ele><time>2011-09-14T09:59:14Z</time></trkpt><trkpt lat="51.862069" lon="-2.079245"><ele>269.79</ele><time>2011-09-14T09:59:25Z</time></trkpt><trkpt lat="51.861982" lon="-2.079264"><ele>269.79</ele><time>2011-09-14T09:59:33Z</time></trkpt><trkpt lat="51.861895" lon="-2.079321"><ele>269.79</ele><time>2011-09-14T09:59:41Z</time></trkpt><trkpt lat="51.861803" lon="-2.079317"><ele>269.79</ele><time>2011-09-14T09:59:50Z</time></trkpt><trkpt lat="51.861701" lon="-2.079310"><ele>270.75</ele><time>2011-09-14T10:00:00Z</time></trkpt><trkpt lat="51.861617" lon="-2.079301"><ele>271.23</ele><time>2011-09-14T10:00:08Z</time></trkpt><trkpt lat="51.861555" lon="-2.079295"><ele>270.75</ele><time>2011-09-14T10:00:14Z</time></trkpt><trkpt lat="51.861546" lon="-2.079294"><ele>270.75</ele><time>2011-09-14T10:00:15Z</time></trkpt><trkpt lat="51.861486" lon="-2.079338"><ele>269.79</ele><time>2011-09-14T10:00:23Z</time></trkpt><trkpt lat="51.861426" lon="-2.079370"><ele>269.79</ele><time>2011-09-14T10:00:30Z</time></trkpt><trkpt lat="51.861363" lon="-2.079400"><ele>269.31</ele><time>2011-09-14T10:00:36Z</time></trkpt><trkpt lat="51.861289" lon="-2.079446"><ele>268.35</ele><time>2011-09-14T10:00:44Z</time></trkpt><trkpt lat="51.861217" lon="-2.079478"><ele>266.90</ele><time>2011-09-14T10:00:53Z</time></trkpt><trkpt lat="51.861129" lon="-2.079563"><ele>266.42</ele><time>2011-09-14T10:01:02Z</time></trkpt><trkpt lat="51.861040" lon="-2.079618"><ele>265.94</ele><time>2011-09-14T10:01:10Z</time></trkpt><trkpt lat="51.861019" lon="-2.079622"><ele>266.90</ele><time>2011-09-14T10:01:16Z</time></trkpt><trkpt lat="51.861022" lon="-2.079623"><ele>267.38</ele><time>2011-09-14T10:01:20Z</time></trkpt><trkpt lat="51.861098" lon="-2.079758"><ele>265.94</ele><time>2011-09-14T10:01:29Z</time></trkpt><trkpt lat="51.861149" lon="-2.079843"><ele>264.02</ele><time>2011-09-14T10:01:36Z</time></trkpt><trkpt lat="51.861192" lon="-2.079888"><ele>263.06</ele><time>2011-09-14T10:01:42Z</time></trkpt><trkpt lat="51.861209" lon="-2.079886"><ele>263.06</ele><time>2011-09-14T10:01:51Z</time></trkpt><trkpt lat="51.861211" lon="-2.079882"><ele>264.02</ele><time>2011-09-14T10:02:03Z</time></trkpt><trkpt lat="51.861183" lon="-2.079886"><ele>263.54</ele><time>2011-09-14T10:02:10Z</time></trkpt><trkpt lat="51.861195" lon="-2.079876"><ele>261.62</ele><time>2011-09-14T10:02:23Z</time></trkpt><trkpt lat="51.861209" lon="-2.079873"><ele>259.69</ele><time>2011-09-14T10:02:35Z</time></trkpt><trkpt lat="51.861209" lon="-2.079873"><ele>259.21</ele><time>2011-09-14T10:02:44Z</time></trkpt><trkpt lat="51.861209" lon="-2.079875"><ele>259.21</ele><time>2011-09-14T10:03:08Z</time></trkpt><trkpt lat="51.861213" lon="-2.079880"><ele>257.29</ele><time>2011-09-14T10:03:37Z</time></trkpt><trkpt lat="51.861206" lon="-2.079861"><ele>257.29</ele><time>2011-09-14T10:03:50Z</time></trkpt><trkpt lat="51.861206" lon="-2.079852"><ele>257.77</ele><time>2011-09-14T10:04:03Z</time></trkpt><trkpt lat="51.861205" lon="-2.079854"><ele>258.73</ele><time>2011-09-14T10:04:12Z</time></trkpt><trkpt lat="51.861215" lon="-2.079868"><ele>258.73</ele><time>2011-09-14T10:04:48Z</time></trkpt><trkpt lat="51.861216" lon="-2.079889"><ele>259.21</ele><time>2011-09-14T10:04:59Z</time></trkpt><trkpt lat="51.861234" lon="-2.079865"><ele>259.21</ele><time>2011-09-14T10:05:07Z</time></trkpt><trkpt lat="51.861231" lon="-2.079861"><ele>258.73</ele><time>2011-09-14T10:05:25Z</time></trkpt><trkpt lat="51.861223" lon="-2.079847"><ele>258.25</ele><time>2011-09-14T10:05:32Z</time></trkpt><trkpt lat="51.861224" lon="-2.079840"><ele>257.77</ele><time>2011-09-14T10:06:16Z</time></trkpt><trkpt lat="51.861228" lon="-2.079841"><ele>257.29</ele><time>2011-09-14T10:06:55Z</time></trkpt><trkpt lat="51.861223" lon="-2.079835"><ele>255.37</ele><time>2011-09-14T10:07:33Z</time></trkpt><trkpt lat="51.861224" lon="-2.079836"><ele>254.41</ele><time>2011-09-14T10:07:50Z</time></trkpt><trkpt lat="51.861223" lon="-2.079849"><ele>254.89</ele><time>2011-09-14T10:08:02Z</time></trkpt><trkpt lat="51.861218" lon="-2.079847"><ele>254.89</ele><time>2011-09-14T10:08:18Z</time></trkpt><trkpt lat="51.861217" lon="-2.079848"><ele>254.89</ele><time>2011-09-14T10:08:41Z</time></trkpt><trkpt lat="51.861218" lon="-2.079834"><ele>254.41</ele><time>2011-09-14T10:09:07Z</time></trkpt><trkpt lat="51.861216" lon="-2.079832"><ele>254.41</ele><time>2011-09-14T10:09:34Z</time></trkpt><trkpt lat="51.861217" lon="-2.079840"><ele>253.44</ele><time>2011-09-14T10:10:42Z</time></trkpt><trkpt lat="51.861222" lon="-2.079843"><ele>253.93</ele><time>2011-09-14T10:12:06Z</time></trkpt><trkpt lat="51.861213" lon="-2.079844"><ele>254.41</ele><time>2011-09-14T10:12:30Z</time></trkpt><trkpt lat="51.861209" lon="-2.079844"><ele>254.89</ele><time>2011-09-14T10:12:57Z</time></trkpt><trkpt lat="51.861204" lon="-2.079862"><ele>256.33</ele><time>2011-09-14T10:13:22Z</time></trkpt><trkpt lat="51.861205" lon="-2.079868"><ele>256.81</ele><time>2011-09-14T10:16:55Z</time></trkpt><trkpt lat="51.861203" lon="-2.079871"><ele>256.33</ele><time>2011-09-14T10:17:31Z</time></trkpt><trkpt lat="51.861205" lon="-2.079861"><ele>257.29</ele><time>2011-09-14T10:17:53Z</time></trkpt><trkpt lat="51.861207" lon="-2.079868"><ele>256.33</ele><time>2011-09-14T10:17:58Z</time></trkpt><trkpt lat="51.861206" lon="-2.079885"><ele>255.85</ele><time>2011-09-14T10:18:07Z</time></trkpt><trkpt lat="51.861177" lon="-2.079876"><ele>256.33</ele><time>2011-09-14T10:18:14Z</time></trkpt><trkpt lat="51.861099" lon="-2.079836"><ele>257.77</ele><time>2011-09-14T10:18:23Z</time></trkpt><trkpt lat="51.860979" lon="-2.079774"><ele>259.69</ele><time>2011-09-14T10:18:35Z</time></trkpt><trkpt lat="51.860872" lon="-2.079749"><ele>261.14</ele><time>2011-09-14T10:18:45Z</time></trkpt><trkpt lat="51.860771" lon="-2.079746"><ele>263.06</ele><time>2011-09-14T10:18:54Z</time></trkpt><trkpt lat="51.860645" lon="-2.079805"><ele>263.06</ele><time>2011-09-14T10:19:05Z</time></trkpt><trkpt lat="51.860521" lon="-2.079869"><ele>262.58</ele><time>2011-09-14T10:19:16Z</time></trkpt><trkpt lat="51.860421" lon="-2.079916"><ele>262.10</ele><time>2011-09-14T10:19:25Z</time></trkpt><trkpt lat="51.860311" lon="-2.079982"><ele>262.10</ele><time>2011-09-14T10:19:34Z</time></trkpt><trkpt lat="51.860191" lon="-2.080035"><ele>262.10</ele><time>2011-09-14T10:19:43Z</time></trkpt><trkpt lat="51.860134" lon="-2.080068"><ele>262.10</ele><time>2011-09-14T10:19:48Z</time></trkpt><trkpt lat="51.860072" lon="-2.080111"><ele>262.58</ele><time>2011-09-14T10:19:54Z</time></trkpt><trkpt lat="51.859935" lon="-2.080158"><ele>262.58</ele><time>2011-09-14T10:20:06Z</time></trkpt><trkpt lat="51.859871" lon="-2.080172"><ele>262.58</ele><time>2011-09-14T10:20:13Z</time></trkpt><trkpt lat="51.859859" lon="-2.080186"><ele>263.06</ele><time>2011-09-14T10:20:24Z</time></trkpt><trkpt lat="51.859840" lon="-2.080228"><ele>261.62</ele><time>2011-09-14T10:20:39Z</time></trkpt><trkpt lat="51.859835" lon="-2.080257"><ele>261.14</ele><time>2011-09-14T10:20:57Z</time></trkpt><trkpt lat="51.859810" lon="-2.080251"><ele>261.14</ele><time>2011-09-14T10:21:03Z</time></trkpt><trkpt lat="51.859763" lon="-2.080211"><ele>261.62</ele><time>2011-09-14T10:21:07Z</time></trkpt><trkpt lat="51.859639" lon="-2.080147"><ele>263.06</ele><time>2011-09-14T10:21:19Z</time></trkpt><trkpt lat="51.859462" lon="-2.080099"><ele>264.98</ele><time>2011-09-14T10:21:33Z</time></trkpt><trkpt lat="51.859332" lon="-2.080070"><ele>265.46</ele><time>2011-09-14T10:21:43Z</time></trkpt><trkpt lat="51.859308" lon="-2.080062"><ele>265.46</ele><time>2011-09-14T10:21:45Z</time></trkpt><trkpt lat="51.859139" lon="-2.080001"><ele>265.94</ele><time>2011-09-14T10:21:58Z</time></trkpt><trkpt lat="51.858932" lon="-2.079918"><ele>266.90</ele><time>2011-09-14T10:22:14Z</time></trkpt><trkpt lat="51.858800" lon="-2.079846"><ele>266.90</ele><time>2011-09-14T10:22:25Z</time></trkpt><trkpt lat="51.858680" lon="-2.079757"><ele>265.94</ele><time>2011-09-14T10:22:36Z</time></trkpt><trkpt lat="51.858605" lon="-2.079719"><ele>264.98</ele><time>2011-09-14T10:22:45Z</time></trkpt><trkpt lat="51.858625" lon="-2.079761"><ele>264.50</ele><time>2011-09-14T10:22:52Z</time></trkpt><trkpt lat="51.858660" lon="-2.079766"><ele>264.98</ele><time>2011-09-14T10:23:01Z</time></trkpt><trkpt lat="51.858671" lon="-2.079771"><ele>265.46</ele><time>2011-09-14T10:23:20Z</time></trkpt><trkpt lat="51.858673" lon="-2.079785"><ele>264.98</ele><time>2011-09-14T10:23:45Z</time></trkpt><trkpt lat="51.858669" lon="-2.079782"><ele>264.98</ele><time>2011-09-14T10:24:14Z</time></trkpt><trkpt lat="51.858668" lon="-2.079749"><ele>264.98</ele><time>2011-09-14T10:24:27Z</time></trkpt><trkpt lat="51.858672" lon="-2.079747"><ele>264.98</ele><time>2011-09-14T10:24:43Z</time></trkpt><trkpt lat="51.858677" lon="-2.079744"><ele>264.50</ele><time>2011-09-14T10:25:32Z</time></trkpt><trkpt lat="51.858704" lon="-2.079769"><ele>264.02</ele><time>2011-09-14T10:25:42Z</time></trkpt><trkpt lat="51.858687" lon="-2.079750"><ele>263.54</ele><time>2011-09-14T10:26:09Z</time></trkpt><trkpt lat="51.858604" lon="-2.079699"><ele>263.06</ele><time>2011-09-14T10:26:16Z</time></trkpt><trkpt lat="51.858470" lon="-2.079599"><ele>262.10</ele><time>2011-09-14T10:26:28Z</time></trkpt><trkpt lat="51.858447" lon="-2.079577"><ele>262.10</ele><time>2011-09-14T10:26:35Z</time></trkpt><trkpt lat="51.858443" lon="-2.079584"><ele>262.10</ele><time>2011-09-14T10:26:40Z</time></trkpt><trkpt lat="51.858413" lon="-2.079668"><ele>261.62</ele><time>2011-09-14T10:26:47Z</time></trkpt><trkpt lat="51.858426" lon="-2.079809"><ele>261.14</ele><time>2011-09-14T10:26:56Z</time></trkpt><trkpt lat="51.858437" lon="-2.079869"><ele>260.65</ele><time>2011-09-14T10:27:00Z</time></trkpt><trkpt lat="51.858390" lon="-2.079942"><ele>259.21</ele><time>2011-09-14T10:27:07Z</time></trkpt><trkpt lat="51.858314" lon="-2.080017"><ele>258.25</ele><time>2011-09-14T10:27:16Z</time></trkpt><trkpt lat="51.858271" lon="-2.080100"><ele>257.29</ele><time>2011-09-14T10:27:24Z</time></trkpt><trkpt lat="51.858229" lon="-2.080166"><ele>256.81</ele><time>2011-09-14T10:27:31Z</time></trkpt><trkpt lat="51.858201" lon="-2.080184"><ele>255.37</ele><time>2011-09-14T10:27:39Z</time></trkpt><trkpt lat="51.858186" lon="-2.080221"><ele>254.41</ele><time>2011-09-14T10:27:46Z</time></trkpt><trkpt lat="51.858132" lon="-2.080305"><ele>252.96</ele><time>2011-09-14T10:27:54Z</time></trkpt><trkpt lat="51.858094" lon="-2.080373"><ele>252.48</ele><time>2011-09-14T10:28:02Z</time></trkpt><trkpt lat="51.858085" lon="-2.080380"><ele>252.00</ele><time>2011-09-14T10:28:06Z</time></trkpt><trkpt lat="51.858041" lon="-2.080371"><ele>250.56</ele><time>2011-09-14T10:28:13Z</time></trkpt><trkpt lat="51.858003" lon="-2.080360"><ele>249.60</ele><time>2011-09-14T10:28:19Z</time></trkpt><trkpt lat="51.857964" lon="-2.080354"><ele>250.08</ele><time>2011-09-14T10:28:25Z</time></trkpt><trkpt lat="51.857959" lon="-2.080347"><ele>250.08</ele><time>2011-09-14T10:28:37Z</time></trkpt><trkpt lat="51.857993" lon="-2.080362"><ele>250.08</ele><time>2011-09-14T10:28:55Z</time></trkpt><trkpt lat="51.858022" lon="-2.080355"><ele>250.08</ele><time>2011-09-14T10:29:04Z</time></trkpt><trkpt lat="51.858024" lon="-2.080365"><ele>250.56</ele><time>2011-09-14T10:29:06Z</time></trkpt><trkpt lat="51.858086" lon="-2.080458"><ele>252.00</ele><time>2011-09-14T10:29:15Z</time></trkpt><trkpt lat="51.858150" lon="-2.080552"><ele>251.52</ele><time>2011-09-14T10:29:24Z</time></trkpt><trkpt lat="51.858193" lon="-2.080626"><ele>251.04</ele><time>2011-09-14T10:29:32Z</time></trkpt><trkpt lat="51.858193" lon="-2.080663"><ele>251.04</ele><time>2011-09-14T10:29:39Z</time></trkpt><trkpt lat="51.858192" lon="-2.080623"><ele>251.52</ele><time>2011-09-14T10:29:50Z</time></trkpt><trkpt lat="51.858200" lon="-2.080638"><ele>252.00</ele><time>2011-09-14T10:29:58Z</time></trkpt><trkpt lat="51.858197" lon="-2.080639"><ele>252.48</ele><time>2011-09-14T10:30:02Z</time></trkpt><trkpt lat="51.858173" lon="-2.080626"><ele>252.00</ele><time>2011-09-14T10:30:05Z</time></trkpt><trkpt lat="51.858099" lon="-2.080610"><ele>250.56</ele><time>2011-09-14T10:30:12Z</time></trkpt><trkpt lat="51.858052" lon="-2.080626"><ele>248.64</ele><time>2011-09-14T10:30:19Z</time></trkpt><trkpt lat="51.858044" lon="-2.080677"><ele>246.72</ele><time>2011-09-14T10:30:25Z</time></trkpt><trkpt lat="51.858056" lon="-2.080753"><ele>244.31</ele><time>2011-09-14T10:30:40Z</time></trkpt><trkpt lat="51.858058" lon="-2.080779"><ele>244.31</ele><time>2011-09-14T10:30:54Z</time></trkpt><trkpt lat="51.858060" lon="-2.080768"><ele>244.31</ele><time>2011-09-14T10:30:59Z</time></trkpt><trkpt lat="51.858058" lon="-2.080698"><ele>245.75</ele><time>2011-09-14T10:31:06Z</time></trkpt><trkpt lat="51.858062" lon="-2.080671"><ele>244.79</ele><time>2011-09-14T10:31:28Z</time></trkpt><trkpt lat="51.858097" lon="-2.080656"><ele>244.31</ele><time>2011-09-14T10:31:35Z</time></trkpt><trkpt lat="51.858138" lon="-2.080653"><ele>244.79</ele><time>2011-09-14T10:31:42Z</time></trkpt><trkpt lat="51.858150" lon="-2.080632"><ele>245.75</ele><time>2011-09-14T10:31:44Z</time></trkpt><trkpt lat="51.858145" lon="-2.080511"><ele>247.68</ele><time>2011-09-14T10:31:52Z</time></trkpt><trkpt lat="51.858124" lon="-2.080432"><ele>249.12</ele><time>2011-09-14T10:31:58Z</time></trkpt><trkpt lat="51.858119" lon="-2.080410"><ele>249.60</ele><time>2011-09-14T10:32:27Z</time></trkpt><trkpt lat="51.858121" lon="-2.080418"><ele>249.60</ele><time>2011-09-14T10:33:55Z</time></trkpt><trkpt lat="51.858183" lon="-2.080525"><ele>250.56</ele><time>2011-09-14T10:34:03Z</time></trkpt><trkpt lat="51.858238" lon="-2.080603"><ele>251.04</ele><time>2011-09-14T10:34:10Z</time></trkpt><trkpt lat="51.858301" lon="-2.080644"><ele>251.52</ele><time>2011-09-14T10:34:17Z</time></trkpt><trkpt lat="51.858362" lon="-2.080666"><ele>252.00</ele><time>2011-09-14T10:34:24Z</time></trkpt><trkpt lat="51.858390" lon="-2.080671"><ele>252.00</ele><time>2011-09-14T10:34:35Z</time></trkpt><trkpt lat="51.858413" lon="-2.080686"><ele>251.52</ele><time>2011-09-14T10:35:01Z</time></trkpt><trkpt lat="51.858461" lon="-2.080690"><ele>251.52</ele><time>2011-09-14T10:35:13Z</time></trkpt><trkpt lat="51.858481" lon="-2.080677"><ele>251.52</ele><time>2011-09-14T10:35:55Z</time></trkpt><trkpt lat="51.858499" lon="-2.080680"><ele>251.52</ele><time>2011-09-14T10:36:03Z</time></trkpt><trkpt lat="51.858518" lon="-2.080688"><ele>251.04</ele><time>2011-09-14T10:36:14Z</time></trkpt><trkpt lat="51.858521" lon="-2.080682"><ele>251.04</ele><time>2011-09-14T10:36:28Z</time></trkpt><trkpt lat="51.858561" lon="-2.080662"><ele>251.04</ele><time>2011-09-14T10:36:33Z</time></trkpt><trkpt lat="51.858602" lon="-2.080657"><ele>251.52</ele><time>2011-09-14T10:36:37Z</time></trkpt><trkpt lat="51.858650" lon="-2.080724"><ele>251.04</ele><time>2011-09-14T10:36:45Z</time></trkpt><trkpt lat="51.858663" lon="-2.080737"><ele>251.52</ele><time>2011-09-14T10:36:57Z</time></trkpt><trkpt lat="51.858748" lon="-2.080704"><ele>252.96</ele><time>2011-09-14T10:37:06Z</time></trkpt><trkpt lat="51.858867" lon="-2.080662"><ele>254.41</ele><time>2011-09-14T10:37:16Z</time></trkpt><trkpt lat="51.858965" lon="-2.080643"><ele>255.37</ele><time>2011-09-14T10:37:25Z</time></trkpt><trkpt lat="51.859053" lon="-2.080628"><ele>256.33</ele><time>2011-09-14T10:37:35Z</time></trkpt><trkpt lat="51.859110" lon="-2.080652"><ele>257.29</ele><time>2011-09-14T10:37:43Z</time></trkpt><trkpt lat="51.859200" lon="-2.080651"><ele>257.29</ele><time>2011-09-14T10:37:51Z</time></trkpt><trkpt lat="51.859272" lon="-2.080652"><ele>257.29</ele><time>2011-09-14T10:37:58Z</time></trkpt><trkpt lat="51.859411" lon="-2.080630"><ele>257.77</ele><time>2011-09-14T10:38:10Z</time></trkpt><trkpt lat="51.859512" lon="-2.080586"><ele>258.25</ele><time>2011-09-14T10:38:19Z</time></trkpt><trkpt lat="51.859625" lon="-2.080525"><ele>258.73</ele><time>2011-09-14T10:38:30Z</time></trkpt><trkpt lat="51.859724" lon="-2.080473"><ele>258.73</ele><time>2011-09-14T10:38:40Z</time></trkpt><trkpt lat="51.859742" lon="-2.080484"><ele>259.21</ele><time>2011-09-14T10:38:49Z</time></trkpt><trkpt lat="51.859746" lon="-2.080470"><ele>259.21</ele><time>2011-09-14T10:38:52Z</time></trkpt><trkpt lat="51.859837" lon="-2.080379"><ele>258.73</ele><time>2011-09-14T10:39:02Z</time></trkpt><trkpt lat="51.859926" lon="-2.080312"><ele>258.73</ele><time>2011-09-14T10:39:11Z</time></trkpt><trkpt lat="51.859960" lon="-2.080282"><ele>258.73</ele><time>2011-09-14T10:39:17Z</time></trkpt><trkpt lat="51.859988" lon="-2.080265"><ele>258.73</ele><time>2011-09-14T10:39:23Z</time></trkpt><trkpt lat="51.860080" lon="-2.080181"><ele>259.21</ele><time>2011-09-14T10:39:33Z</time></trkpt><trkpt lat="51.860178" lon="-2.080117"><ele>256.33</ele><time>2011-09-14T10:39:42Z</time></trkpt><trkpt lat="51.860292" lon="-2.080072"><ele>254.89</ele><time>2011-09-14T10:39:52Z</time></trkpt><trkpt lat="51.860387" lon="-2.080040"><ele>255.37</ele><time>2011-09-14T10:40:01Z</time></trkpt><trkpt lat="51.860490" lon="-2.079994"><ele>258.25</ele><time>2011-09-14T10:40:11Z</time></trkpt><trkpt lat="51.860567" lon="-2.079967"><ele>259.21</ele><time>2011-09-14T10:40:19Z</time></trkpt><trkpt lat="51.860624" lon="-2.079946"><ele>258.73</ele><time>2011-09-14T10:40:25Z</time></trkpt><trkpt lat="51.860745" lon="-2.079868"><ele>259.69</ele><time>2011-09-14T10:40:35Z</time></trkpt><trkpt lat="51.860833" lon="-2.079827"><ele>260.65</ele><time>2011-09-14T10:40:43Z</time></trkpt><trkpt lat="51.860936" lon="-2.079755"><ele>262.10</ele><time>2011-09-14T10:40:52Z</time></trkpt><trkpt lat="51.861039" lon="-2.079699"><ele>262.58</ele><time>2011-09-14T10:41:01Z</time></trkpt><trkpt lat="51.861143" lon="-2.079650"><ele>263.54</ele><time>2011-09-14T10:41:11Z</time></trkpt><trkpt lat="51.861239" lon="-2.079583"><ele>264.50</ele><time>2011-09-14T10:41:20Z</time></trkpt><trkpt lat="51.861315" lon="-2.079530"><ele>265.46</ele><time>2011-09-14T10:41:27Z</time></trkpt><trkpt lat="51.861406" lon="-2.079472"><ele>265.46</ele><time>2011-09-14T10:41:35Z</time></trkpt><trkpt lat="51.861521" lon="-2.079432"><ele>264.98</ele><time>2011-09-14T10:41:45Z</time></trkpt><trkpt lat="51.861632" lon="-2.079411"><ele>265.94</ele><time>2011-09-14T10:41:55Z</time></trkpt><trkpt lat="51.861747" lon="-2.079383"><ele>266.42</ele><time>2011-09-14T10:42:05Z</time></trkpt><trkpt lat="51.861826" lon="-2.079382"><ele>267.86</ele><time>2011-09-14T10:42:12Z</time></trkpt><trkpt lat="51.861941" lon="-2.079376"><ele>268.83</ele><time>2011-09-14T10:42:22Z</time></trkpt><trkpt lat="51.862054" lon="-2.079347"><ele>269.31</ele><time>2011-09-14T10:42:32Z</time></trkpt><trkpt lat="51.862147" lon="-2.079325"><ele>269.31</ele><time>2011-09-14T10:42:40Z</time></trkpt><trkpt lat="51.862241" lon="-2.079320"><ele>268.83</ele><time>2011-09-14T10:42:48Z</time></trkpt><trkpt lat="51.862347" lon="-2.079286"><ele>268.83</ele><time>2011-09-14T10:42:57Z</time></trkpt><trkpt lat="51.862456" lon="-2.079207"><ele>269.31</ele><time>2011-09-14T10:43:06Z</time></trkpt><trkpt lat="51.862534" lon="-2.079151"><ele>269.79</ele><time>2011-09-14T10:43:13Z</time></trkpt><trkpt lat="51.862638" lon="-2.079093"><ele>269.79</ele><time>2011-09-14T10:43:22Z</time></trkpt><trkpt lat="51.862735" lon="-2.079043"><ele>270.75</ele><time>2011-09-14T10:43:31Z</time></trkpt><trkpt lat="51.862825" lon="-2.078987"><ele>270.75</ele><time>2011-09-14T10:43:39Z</time></trkpt><trkpt lat="51.862936" lon="-2.078929"><ele>271.23</ele><time>2011-09-14T10:43:49Z</time></trkpt><trkpt lat="51.863051" lon="-2.078869"><ele>272.19</ele><time>2011-09-14T10:44:00Z</time></trkpt><trkpt lat="51.863143" lon="-2.078817"><ele>273.63</ele><time>2011-09-14T10:44:09Z</time></trkpt><trkpt lat="51.863226" lon="-2.078778"><ele>273.63</ele><time>2011-09-14T10:44:17Z</time></trkpt><trkpt lat="51.863237" lon="-2.078753"><ele>274.11</ele><time>2011-09-14T10:44:25Z</time></trkpt><trkpt lat="51.863263" lon="-2.078744"><ele>275.07</ele><time>2011-09-14T10:44:29Z</time></trkpt><trkpt lat="51.863310" lon="-2.078674"><ele>276.04</ele><time>2011-09-14T10:44:35Z</time></trkpt><trkpt lat="51.863349" lon="-2.078554"><ele>277.00</ele><time>2011-09-14T10:44:43Z</time></trkpt><trkpt lat="51.863376" lon="-2.078456"><ele>276.04</ele><time>2011-09-14T10:44:49Z</time></trkpt><trkpt lat="51.863425" lon="-2.078365"><ele>275.56</ele><time>2011-09-14T10:44:58Z</time></trkpt><trkpt lat="51.863502" lon="-2.078284"><ele>276.52</ele><time>2011-09-14T10:45:07Z</time></trkpt><trkpt lat="51.863583" lon="-2.078182"><ele>277.96</ele><time>2011-09-14T10:45:16Z</time></trkpt><trkpt lat="51.863640" lon="-2.078100"><ele>279.40</ele><time>2011-09-14T10:45:24Z</time></trkpt><trkpt lat="51.863693" lon="-2.078025"><ele>280.36</ele><time>2011-09-14T10:45:32Z</time></trkpt><trkpt lat="51.863772" lon="-2.077898"><ele>282.77</ele><time>2011-09-14T10:45:42Z</time></trkpt><trkpt lat="51.863855" lon="-2.077765"><ele>284.21</ele><time>2011-09-14T10:45:52Z</time></trkpt><trkpt lat="51.863927" lon="-2.077623"><ele>285.65</ele><time>2011-09-14T10:46:02Z</time></trkpt><trkpt lat="51.863996" lon="-2.077487"><ele>286.61</ele><time>2011-09-14T10:46:12Z</time></trkpt><trkpt lat="51.864079" lon="-2.077335"><ele>288.05</ele><time>2011-09-14T10:46:23Z</time></trkpt><trkpt lat="51.864123" lon="-2.077220"><ele>287.57</ele><time>2011-09-14T10:46:32Z</time></trkpt><trkpt lat="51.864172" lon="-2.077119"><ele>288.05</ele><time>2011-09-14T10:46:40Z</time></trkpt><trkpt lat="51.864207" lon="-2.077071"><ele>288.05</ele><time>2011-09-14T10:46:47Z</time></trkpt><trkpt lat="51.864232" lon="-2.077005"><ele>288.05</ele><time>2011-09-14T10:46:55Z</time></trkpt><trkpt lat="51.864269" lon="-2.076911"><ele>289.01</ele><time>2011-09-14T10:47:02Z</time></trkpt><trkpt lat="51.864294" lon="-2.076858"><ele>289.49</ele><time>2011-09-14T10:47:06Z</time></trkpt><trkpt lat="51.864329" lon="-2.076737"><ele>289.97</ele><time>2011-09-14T10:47:15Z</time></trkpt><trkpt lat="51.864342" lon="-2.076664"><ele>290.46</ele><time>2011-09-14T10:47:21Z</time></trkpt><trkpt lat="51.864350" lon="-2.076648"><ele>290.46</ele><time>2011-09-14T10:47:27Z</time></trkpt><trkpt lat="51.864353" lon="-2.076434"><ele>289.97</ele><time>2011-09-14T10:47:40Z</time></trkpt><trkpt lat="51.864337" lon="-2.076259"><ele>290.94</ele><time>2011-09-14T10:47:50Z</time></trkpt><trkpt lat="51.864317" lon="-2.076045"><ele>290.94</ele><time>2011-09-14T10:48:02Z</time></trkpt><trkpt lat="51.864292" lon="-2.075790"><ele>290.94</ele><time>2011-09-14T10:48:16Z</time></trkpt><trkpt lat="51.864277" lon="-2.075641"><ele>291.42</ele><time>2011-09-14T10:48:26Z</time></trkpt><trkpt lat="51.864274" lon="-2.075593"><ele>290.94</ele><time>2011-09-14T10:48:33Z</time></trkpt><trkpt lat="51.864267" lon="-2.075469"><ele>289.49</ele><time>2011-09-14T10:48:42Z</time></trkpt><trkpt lat="51.864269" lon="-2.075349"><ele>288.05</ele><time>2011-09-14T10:48:49Z</time></trkpt><trkpt lat="51.864275" lon="-2.075248"><ele>287.57</ele><time>2011-09-14T10:48:56Z</time></trkpt><trkpt lat="51.864259" lon="-2.075189"><ele>286.13</ele><time>2011-09-14T10:49:03Z</time></trkpt><trkpt lat="51.864260" lon="-2.075163"><ele>285.17</ele><time>2011-09-14T10:49:11Z</time></trkpt><trkpt lat="51.864281" lon="-2.075116"><ele>286.13</ele><time>2011-09-14T10:49:18Z</time></trkpt><trkpt lat="51.864284" lon="-2.075073"><ele>286.61</ele><time>2011-09-14T10:49:22Z</time></trkpt><trkpt lat="51.864294" lon="-2.075000"><ele>287.09</ele><time>2011-09-14T10:49:26Z</time></trkpt><trkpt lat="51.864304" lon="-2.074837"><ele>287.57</ele><time>2011-09-14T10:49:35Z</time></trkpt><trkpt lat="51.864322" lon="-2.074635"><ele>287.09</ele><time>2011-09-14T10:49:45Z</time></trkpt><trkpt lat="51.864328" lon="-2.074419"><ele>287.57</ele><time>2011-09-14T10:49:56Z</time></trkpt><trkpt lat="51.864349" lon="-2.074245"><ele>288.05</ele><time>2011-09-14T10:50:05Z</time></trkpt><trkpt lat="51.864385" lon="-2.074070"><ele>288.05</ele><time>2011-09-14T10:50:15Z</time></trkpt><trkpt lat="51.864411" lon="-2.073976"><ele>287.57</ele><time>2011-09-14T10:50:21Z</time></trkpt><trkpt lat="51.864426" lon="-2.073910"><ele>287.09</ele><time>2011-09-14T10:50:25Z</time></trkpt><trkpt lat="51.864467" lon="-2.073788"><ele>286.61</ele><time>2011-09-14T10:50:34Z</time></trkpt><trkpt lat="51.864521" lon="-2.073680"><ele>286.13</ele><time>2011-09-14T10:50:43Z</time></trkpt><trkpt lat="51.864562" lon="-2.073536"><ele>285.17</ele><time>2011-09-14T10:50:52Z</time></trkpt><trkpt lat="51.864583" lon="-2.073420"><ele>285.17</ele><time>2011-09-14T10:50:59Z</time></trkpt><trkpt lat="51.864602" lon="-2.073270"><ele>283.25</ele><time>2011-09-14T10:51:08Z</time></trkpt><trkpt lat="51.864614" lon="-2.073207"><ele>284.21</ele><time>2011-09-14T10:51:12Z</time></trkpt><trkpt lat="51.864652" lon="-2.073075"><ele>283.73</ele><time>2011-09-14T10:51:20Z</time></trkpt><trkpt lat="51.864676" lon="-2.072988"><ele>283.25</ele><time>2011-09-14T10:51:28Z</time></trkpt><trkpt lat="51.864688" lon="-2.072966"><ele>282.77</ele><time>2011-09-14T10:51:33Z</time></trkpt><trkpt lat="51.864697" lon="-2.072937"><ele>282.28</ele><time>2011-09-14T10:51:39Z</time></trkpt><trkpt lat="51.864686" lon="-2.072827"><ele>281.80</ele><time>2011-09-14T10:51:50Z</time></trkpt><trkpt lat="51.864696" lon="-2.072797"><ele>281.80</ele><time>2011-09-14T10:51:52Z</time></trkpt><trkpt lat="51.864736" lon="-2.072671"><ele>279.88</ele><time>2011-09-14T10:52:01Z</time></trkpt><trkpt lat="51.864736" lon="-2.072664"><ele>279.88</ele><time>2011-09-14T10:52:02Z</time></trkpt><trkpt lat="51.864753" lon="-2.072617"><ele>279.40</ele><time>2011-09-14T10:52:09Z</time></trkpt><trkpt lat="51.864779" lon="-2.072558"><ele>279.88</ele><time>2011-09-14T10:52:15Z</time></trkpt><trkpt lat="51.864817" lon="-2.072513"><ele>280.84</ele><time>2011-09-14T10:52:21Z</time></trkpt><trkpt lat="51.864841" lon="-2.072425"><ele>282.77</ele><time>2011-09-14T10:52:28Z</time></trkpt><trkpt lat="51.864829" lon="-2.072377"><ele>283.25</ele><time>2011-09-14T10:52:36Z</time></trkpt><trkpt lat="51.864867" lon="-2.072297"><ele>284.69</ele><time>2011-09-14T10:52:44Z</time></trkpt><trkpt lat="51.864913" lon="-2.072197"><ele>284.69</ele><time>2011-09-14T10:52:50Z</time></trkpt><trkpt lat="51.864938" lon="-2.072058"><ele>284.69</ele><time>2011-09-14T10:52:58Z</time></trkpt><trkpt lat="51.864963" lon="-2.071908"><ele>285.17</ele><time>2011-09-14T10:53:07Z</time></trkpt><trkpt lat="51.864981" lon="-2.071797"><ele>284.69</ele><time>2011-09-14T10:53:14Z</time></trkpt><trkpt lat="51.864994" lon="-2.071742"><ele>285.17</ele><time>2011-09-14T10:53:17Z</time></trkpt><trkpt lat="51.864997" lon="-2.071606"><ele>284.21</ele><time>2011-09-14T10:53:25Z</time></trkpt><trkpt lat="51.864989" lon="-2.071473"><ele>282.77</ele><time>2011-09-14T10:53:34Z</time></trkpt><trkpt lat="51.865002" lon="-2.071368"><ele>282.28</ele><time>2011-09-14T10:53:41Z</time></trkpt><trkpt lat="51.865011" lon="-2.071235"><ele>282.28</ele><time>2011-09-14T10:53:49Z</time></trkpt><trkpt lat="51.865043" lon="-2.071101"><ele>282.28</ele><time>2011-09-14T10:53:58Z</time></trkpt><trkpt lat="51.865062" lon="-2.071020"><ele>283.25</ele><time>2011-09-14T10:54:06Z</time></trkpt><trkpt lat="51.865048" lon="-2.071007"><ele>283.73</ele><time>2011-09-14T10:54:08Z</time></trkpt><trkpt lat="51.864989" lon="-2.070969"><ele>282.28</ele><time>2011-09-14T10:54:15Z</time></trkpt><trkpt lat="51.864998" lon="-2.070989"><ele>282.28</ele><time>2011-09-14T10:54:19Z</time></trkpt><trkpt lat="51.865024" lon="-2.071015"><ele>282.77</ele><time>2011-09-14T10:54:22Z</time></trkpt><trkpt lat="51.865049" lon="-2.071030"><ele>282.77</ele><time>2011-09-14T10:54:25Z</time></trkpt><trkpt lat="51.865084" lon="-2.070981"><ele>282.77</ele><time>2011-09-14T10:54:31Z</time></trkpt><trkpt lat="51.865099" lon="-2.070879"><ele>282.77</ele><time>2011-09-14T10:54:38Z</time></trkpt><trkpt lat="51.865102" lon="-2.070848"><ele>282.77</ele><time>2011-09-14T10:54:46Z</time></trkpt><trkpt lat="51.865099" lon="-2.070828"><ele>282.77</ele><time>2011-09-14T10:54:48Z</time></trkpt><trkpt lat="51.865099" lon="-2.070746"><ele>283.25</ele><time>2011-09-14T10:54:53Z</time></trkpt><trkpt lat="51.865126" lon="-2.070576"><ele>283.25</ele><time>2011-09-14T10:55:03Z</time></trkpt><trkpt lat="51.865126" lon="-2.070461"><ele>282.77</ele><time>2011-09-14T10:55:10Z</time></trkpt><trkpt lat="51.865127" lon="-2.070327"><ele>282.28</ele><time>2011-09-14T10:55:18Z</time></trkpt><trkpt lat="51.865131" lon="-2.070259"><ele>281.80</ele><time>2011-09-14T10:55:22Z</time></trkpt><trkpt lat="51.865125" lon="-2.070206"><ele>281.32</ele><time>2011-09-14T10:55:25Z</time></trkpt><trkpt lat="51.865112" lon="-2.070021"><ele>280.84</ele><time>2011-09-14T10:55:36Z</time></trkpt><trkpt lat="51.865108" lon="-2.069869"><ele>280.36</ele><time>2011-09-14T10:55:45Z</time></trkpt><trkpt lat="51.865123" lon="-2.069720"><ele>279.88</ele><time>2011-09-14T10:55:53Z</time></trkpt><trkpt lat="51.865124" lon="-2.069649"><ele>279.40</ele><time>2011-09-14T10:55:57Z</time></trkpt><trkpt lat="51.865141" lon="-2.069465"><ele>280.84</ele><time>2011-09-14T10:56:07Z</time></trkpt><trkpt lat="51.865147" lon="-2.069401"><ele>280.84</ele><time>2011-09-14T10:56:11Z</time></trkpt><trkpt lat="51.865142" lon="-2.069262"><ele>279.88</ele><time>2011-09-14T10:56:19Z</time></trkpt><trkpt lat="51.865137" lon="-2.069152"><ele>279.88</ele><time>2011-09-14T10:56:26Z</time></trkpt><trkpt lat="51.865126" lon="-2.069093"><ele>277.96</ele><time>2011-09-14T10:56:32Z</time></trkpt><trkpt lat="51.865131" lon="-2.068970"><ele>278.92</ele><time>2011-09-14T10:56:41Z</time></trkpt><trkpt lat="51.865133" lon="-2.068876"><ele>278.44</ele><time>2011-09-14T10:56:49Z</time></trkpt><trkpt lat="51.865102" lon="-2.068672"><ele>277.96</ele><time>2011-09-14T10:57:00Z</time></trkpt><trkpt lat="51.865068" lon="-2.068534"><ele>277.00</ele><time>2011-09-14T10:57:08Z</time></trkpt><trkpt lat="51.865064" lon="-2.068335"><ele>277.48</ele><time>2011-09-14T10:57:18Z</time></trkpt><trkpt lat="51.865046" lon="-2.068198"><ele>276.52</ele><time>2011-09-14T10:57:26Z</time></trkpt><trkpt lat="51.865021" lon="-2.068036"><ele>276.52</ele><time>2011-09-14T10:57:35Z</time></trkpt><trkpt lat="51.865012" lon="-2.067856"><ele>277.00</ele><time>2011-09-14T10:57:45Z</time></trkpt><trkpt lat="51.864988" lon="-2.067656"><ele>277.00</ele><time>2011-09-14T10:57:56Z</time></trkpt><trkpt lat="51.864985" lon="-2.067620"><ele>276.52</ele><time>2011-09-14T10:57:58Z</time></trkpt><trkpt lat="51.864969" lon="-2.067505"><ele>276.52</ele><time>2011-09-14T10:58:06Z</time></trkpt><trkpt lat="51.864985" lon="-2.067463"><ele>277.96</ele><time>2011-09-14T10:58:16Z</time></trkpt><trkpt lat="51.864964" lon="-2.067310"><ele>277.96</ele><time>2011-09-14T10:58:24Z</time></trkpt><trkpt lat="51.864936" lon="-2.067117"><ele>275.56</ele><time>2011-09-14T10:58:34Z</time></trkpt><trkpt lat="51.864915" lon="-2.066936"><ele>276.52</ele><time>2011-09-14T10:58:45Z</time></trkpt><trkpt lat="51.864907" lon="-2.066906"><ele>277.00</ele><time>2011-09-14T10:58:52Z</time></trkpt><trkpt lat="51.864897" lon="-2.066708"><ele>277.48</ele><time>2011-09-14T10:59:03Z</time></trkpt><trkpt lat="51.864889" lon="-2.066505"><ele>277.48</ele><time>2011-09-14T10:59:13Z</time></trkpt><trkpt lat="51.864881" lon="-2.066419"><ele>277.48</ele><time>2011-09-14T10:59:21Z</time></trkpt><trkpt lat="51.864867" lon="-2.066361"><ele>277.00</ele><time>2011-09-14T10:59:38Z</time></trkpt><trkpt lat="51.864854" lon="-2.066147"><ele>277.00</ele><time>2011-09-14T10:59:48Z</time></trkpt><trkpt lat="51.864821" lon="-2.065855"><ele>275.56</ele><time>2011-09-14T11:00:02Z</time></trkpt><trkpt lat="51.864775" lon="-2.065647"><ele>274.59</ele><time>2011-09-14T11:00:13Z</time></trkpt><trkpt lat="51.864746" lon="-2.065497"><ele>275.07</ele><time>2011-09-14T11:00:22Z</time></trkpt><trkpt lat="51.864734" lon="-2.065442"><ele>275.56</ele><time>2011-09-14T11:00:31Z</time></trkpt><trkpt lat="51.864738" lon="-2.065433"><ele>276.04</ele><time>2011-09-14T11:00:37Z</time></trkpt><trkpt lat="51.864733" lon="-2.065457"><ele>274.59</ele><time>2011-09-14T11:00:43Z</time></trkpt><trkpt lat="51.864728" lon="-2.065458"><ele>273.63</ele><time>2011-09-14T11:01:06Z</time></trkpt><trkpt lat="51.864735" lon="-2.065432"><ele>273.15</ele><time>2011-09-14T11:01:09Z</time></trkpt><trkpt lat="51.864747" lon="-2.065221"><ele>271.71</ele><time>2011-09-14T11:01:22Z</time></trkpt><trkpt lat="51.864783" lon="-2.064993"><ele>273.15</ele><time>2011-09-14T11:01:34Z</time></trkpt><trkpt lat="51.864800" lon="-2.064924"><ele>272.19</ele><time>2011-09-14T11:01:38Z</time></trkpt><trkpt lat="51.864833" lon="-2.064664"><ele>272.19</ele><time>2011-09-14T11:01:52Z</time></trkpt><trkpt lat="51.864851" lon="-2.064477"><ele>272.67</ele><time>2011-09-14T11:02:03Z</time></trkpt><trkpt lat="51.864827" lon="-2.064204"><ele>273.15</ele><time>2011-09-14T11:02:18Z</time></trkpt><trkpt lat="51.864791" lon="-2.064044"><ele>273.63</ele><time>2011-09-14T11:02:28Z</time></trkpt><trkpt lat="51.864746" lon="-2.063856"><ele>274.11</ele><time>2011-09-14T11:02:39Z</time></trkpt><trkpt lat="51.864764" lon="-2.063799"><ele>274.59</ele><time>2011-09-14T11:02:49Z</time></trkpt><trkpt lat="51.864758" lon="-2.063772"><ele>272.67</ele><time>2011-09-14T11:03:18Z</time></trkpt><trkpt lat="51.864832" lon="-2.063568"><ele>271.71</ele><time>2011-09-14T11:03:30Z</time></trkpt><trkpt lat="51.864907" lon="-2.063398"><ele>270.75</ele><time>2011-09-14T11:03:42Z</time></trkpt><trkpt lat="51.864897" lon="-2.063177"><ele>270.27</ele><time>2011-09-14T11:03:54Z</time></trkpt><trkpt lat="51.864901" lon="-2.063062"><ele>270.27</ele><time>2011-09-14T11:04:00Z</time></trkpt><trkpt lat="51.864915" lon="-2.062965"><ele>270.27</ele><time>2011-09-14T11:04:05Z</time></trkpt><trkpt lat="51.864946" lon="-2.062720"><ele>269.31</ele><time>2011-09-14T11:04:18Z</time></trkpt><trkpt lat="51.864979" lon="-2.062503"><ele>269.79</ele><time>2011-09-14T11:04:30Z</time></trkpt><trkpt lat="51.865004" lon="-2.062295"><ele>270.27</ele><time>2011-09-14T11:04:41Z</time></trkpt><trkpt lat="51.865094" lon="-2.062028"><ele>271.23</ele><time>2011-09-14T11:04:56Z</time></trkpt><trkpt lat="51.865124" lon="-2.061868"><ele>272.67</ele><time>2011-09-14T11:05:07Z</time></trkpt><trkpt lat="51.865124" lon="-2.061866"><ele>273.15</ele><time>2011-09-14T11:05:15Z</time></trkpt><trkpt lat="51.865130" lon="-2.061818"><ele>273.63</ele><time>2011-09-14T11:05:50Z</time></trkpt><trkpt lat="51.865149" lon="-2.061754"><ele>274.11</ele><time>2011-09-14T11:05:57Z</time></trkpt><trkpt lat="51.865129" lon="-2.061593"><ele>275.56</ele><time>2011-09-14T11:06:06Z</time></trkpt><trkpt lat="51.865113" lon="-2.061488"><ele>273.15</ele><time>2011-09-14T11:06:15Z</time></trkpt><trkpt lat="51.865104" lon="-2.061456"><ele>273.15</ele><time>2011-09-14T11:06:17Z</time></trkpt><trkpt lat="51.865071" lon="-2.061369"><ele>271.71</ele><time>2011-09-14T11:06:23Z</time></trkpt><trkpt lat="51.865101" lon="-2.061128"><ele>273.63</ele><time>2011-09-14T11:06:36Z</time></trkpt><trkpt lat="51.865117" lon="-2.060927"><ele>274.59</ele><time>2011-09-14T11:06:47Z</time></trkpt><trkpt lat="51.865129" lon="-2.060768"><ele>273.63</ele><time>2011-09-14T11:06:55Z</time></trkpt><trkpt lat="51.865150" lon="-2.060559"><ele>275.07</ele><time>2011-09-14T11:07:05Z</time></trkpt><trkpt lat="51.865162" lon="-2.060470"><ele>275.07</ele><time>2011-09-14T11:07:12Z</time></trkpt><trkpt lat="51.865158" lon="-2.060427"><ele>275.07</ele><time>2011-09-14T11:07:26Z</time></trkpt><trkpt lat="51.865151" lon="-2.060185"><ele>273.63</ele><time>2011-09-14T11:07:37Z</time></trkpt><trkpt lat="51.865144" lon="-2.059977"><ele>273.63</ele><time>2011-09-14T11:07:48Z</time></trkpt><trkpt lat="51.865129" lon="-2.059776"><ele>273.15</ele><time>2011-09-14T11:07:59Z</time></trkpt><trkpt lat="51.865115" lon="-2.059685"><ele>273.15</ele><time>2011-09-14T11:08:04Z</time></trkpt><trkpt lat="51.865118" lon="-2.059560"><ele>274.11</ele><time>2011-09-14T11:08:12Z</time></trkpt><trkpt lat="51.865108" lon="-2.059566"><ele>275.07</ele><time>2011-09-14T11:08:45Z</time></trkpt><trkpt lat="51.865105" lon="-2.059558"><ele>275.07</ele><time>2011-09-14T11:08:46Z</time></trkpt><trkpt lat="51.865057" lon="-2.059433"><ele>274.59</ele><time>2011-09-14T11:08:55Z</time></trkpt><trkpt lat="51.865015" lon="-2.059316"><ele>275.07</ele><time>2011-09-14T11:09:03Z</time></trkpt><trkpt lat="51.864974" lon="-2.059187"><ele>275.56</ele><time>2011-09-14T11:09:12Z</time></trkpt><trkpt lat="51.864921" lon="-2.059041"><ele>275.56</ele><time>2011-09-14T11:09:21Z</time></trkpt><trkpt lat="51.864845" lon="-2.058913"><ele>275.07</ele><time>2011-09-14T11:09:31Z</time></trkpt><trkpt lat="51.864805" lon="-2.058854"><ele>274.11</ele><time>2011-09-14T11:09:36Z</time></trkpt><trkpt lat="51.864742" lon="-2.058788"><ele>273.15</ele><time>2011-09-14T11:09:46Z</time></trkpt><trkpt lat="51.864704" lon="-2.058748"><ele>272.19</ele><time>2011-09-14T11:10:04Z</time></trkpt><trkpt lat="51.864604" lon="-2.058653"><ele>271.71</ele><time>2011-09-14T11:10:14Z</time></trkpt><trkpt lat="51.864596" lon="-2.058642"><ele>271.71</ele><time>2011-09-14T11:10:15Z</time></trkpt><trkpt lat="51.864546" lon="-2.058492"><ele>273.15</ele><time>2011-09-14T11:10:25Z</time></trkpt><trkpt lat="51.864506" lon="-2.058421"><ele>273.63</ele><time>2011-09-14T11:10:31Z</time></trkpt><trkpt lat="51.864455" lon="-2.058345"><ele>273.63</ele><time>2011-09-14T11:10:38Z</time></trkpt><trkpt lat="51.864380" lon="-2.058243"><ele>272.67</ele><time>2011-09-14T11:10:47Z</time></trkpt><trkpt lat="51.864365" lon="-2.058216"><ele>273.15</ele><time>2011-09-14T11:10:49Z</time></trkpt><trkpt lat="51.864305" lon="-2.058121"><ele>272.67</ele><time>2011-09-14T11:10:57Z</time></trkpt><trkpt lat="51.864300" lon="-2.058139"><ele>271.71</ele><time>2011-09-14T11:11:12Z</time></trkpt><trkpt lat="51.864267" lon="-2.058096"><ele>271.23</ele><time>2011-09-14T11:11:22Z</time></trkpt><trkpt lat="51.864203" lon="-2.058001"><ele>272.19</ele><time>2011-09-14T11:11:30Z</time></trkpt><trkpt lat="51.864139" lon="-2.057908"><ele>272.67</ele><time>2011-09-14T11:11:38Z</time></trkpt><trkpt lat="51.864069" lon="-2.057803"><ele>273.15</ele><time>2011-09-14T11:11:47Z</time></trkpt><trkpt lat="51.863982" lon="-2.057689"><ele>272.19</ele><time>2011-09-14T11:11:57Z</time></trkpt><trkpt lat="51.863885" lon="-2.057573"><ele>271.71</ele><time>2011-09-14T11:12:08Z</time></trkpt><trkpt lat="51.863799" lon="-2.057459"><ele>270.75</ele><time>2011-09-14T11:12:18Z</time></trkpt><trkpt lat="51.863715" lon="-2.057327"><ele>270.27</ele><time>2011-09-14T11:12:29Z</time></trkpt><trkpt lat="51.863651" lon="-2.057228"><ele>270.27</ele><time>2011-09-14T11:12:38Z</time></trkpt><trkpt lat="51.863591" lon="-2.057137"><ele>269.31</ele><time>2011-09-14T11:12:47Z</time></trkpt><trkpt lat="51.863531" lon="-2.057041"><ele>268.35</ele><time>2011-09-14T11:12:56Z</time></trkpt><trkpt lat="51.863461" lon="-2.056884"><ele>266.90</ele><time>2011-09-14T11:13:07Z</time></trkpt><trkpt lat="51.863391" lon="-2.056759"><ele>265.94</ele><time>2011-09-14T11:13:18Z</time></trkpt><trkpt lat="51.863314" lon="-2.056659"><ele>264.02</ele><time>2011-09-14T11:13:28Z</time></trkpt><trkpt lat="51.863266" lon="-2.056534"><ele>264.02</ele><time>2011-09-14T11:13:37Z</time></trkpt><trkpt lat="51.863188" lon="-2.056412"><ele>263.54</ele><time>2011-09-14T11:13:48Z</time></trkpt><trkpt lat="51.863134" lon="-2.056299"><ele>263.54</ele><time>2011-09-14T11:13:57Z</time></trkpt><trkpt lat="51.863066" lon="-2.056160"><ele>264.02</ele><time>2011-09-14T11:14:07Z</time></trkpt><trkpt lat="51.863004" lon="-2.056086"><ele>262.58</ele><time>2011-09-14T11:14:15Z</time></trkpt><trkpt lat="51.862938" lon="-2.055991"><ele>260.65</ele><time>2011-09-14T11:14:25Z</time></trkpt><trkpt lat="51.862846" lon="-2.055905"><ele>259.69</ele><time>2011-09-14T11:14:35Z</time></trkpt><trkpt lat="51.862755" lon="-2.055862"><ele>259.69</ele><time>2011-09-14T11:14:44Z</time></trkpt><trkpt lat="51.862673" lon="-2.055830"><ele>259.69</ele><time>2011-09-14T11:14:53Z</time></trkpt><trkpt lat="51.862579" lon="-2.055765"><ele>258.73</ele><time>2011-09-14T11:15:03Z</time></trkpt><trkpt lat="51.862488" lon="-2.055687"><ele>257.77</ele><time>2011-09-14T11:15:13Z</time></trkpt><trkpt lat="51.862391" lon="-2.055615"><ele>256.81</ele><time>2011-09-14T11:15:23Z</time></trkpt><trkpt lat="51.862315" lon="-2.055545"><ele>256.33</ele><time>2011-09-14T11:15:32Z</time></trkpt><trkpt lat="51.862223" lon="-2.055497"><ele>255.37</ele><time>2011-09-14T11:15:42Z</time></trkpt><trkpt lat="51.862159" lon="-2.055430"><ele>253.93</ele><time>2011-09-14T11:15:50Z</time></trkpt><trkpt lat="51.862151" lon="-2.055438"><ele>252.96</ele><time>2011-09-14T11:16:07Z</time></trkpt><trkpt lat="51.862136" lon="-2.055486"><ele>251.52</ele><time>2011-09-14T11:16:14Z</time></trkpt><trkpt lat="51.862136" lon="-2.055465"><ele>249.12</ele><time>2011-09-14T11:16:25Z</time></trkpt><trkpt lat="51.862136" lon="-2.055464"><ele>248.16</ele><time>2011-09-14T11:16:39Z</time></trkpt><trkpt lat="51.862113" lon="-2.055406"><ele>247.68</ele><time>2011-09-14T11:16:45Z</time></trkpt><trkpt lat="51.862064" lon="-2.055307"><ele>247.20</ele><time>2011-09-14T11:16:55Z</time></trkpt><trkpt lat="51.862015" lon="-2.055224"><ele>247.68</ele><time>2011-09-14T11:17:04Z</time></trkpt><trkpt lat="51.861953" lon="-2.055114"><ele>246.72</ele><time>2011-09-14T11:17:14Z</time></trkpt><trkpt lat="51.861890" lon="-2.055017"><ele>244.79</ele><time>2011-09-14T11:17:23Z</time></trkpt><trkpt lat="51.861833" lon="-2.054935"><ele>243.35</ele><time>2011-09-14T11:17:31Z</time></trkpt><trkpt lat="51.861787" lon="-2.054889"><ele>242.39</ele><time>2011-09-14T11:17:39Z</time></trkpt><trkpt lat="51.861787" lon="-2.054874"><ele>242.87</ele><time>2011-09-14T11:17:43Z</time></trkpt><trkpt lat="51.861741" lon="-2.054758"><ele>242.39</ele><time>2011-09-14T11:17:51Z</time></trkpt><trkpt lat="51.861690" lon="-2.054682"><ele>240.95</ele><time>2011-09-14T11:17:59Z</time></trkpt><trkpt lat="51.861654" lon="-2.054605"><ele>241.43</ele><time>2011-09-14T11:18:08Z</time></trkpt><trkpt lat="51.861644" lon="-2.054582"><ele>242.39</ele><time>2011-09-14T11:18:20Z</time></trkpt><trkpt lat="51.861613" lon="-2.054461"><ele>242.39</ele><time>2011-09-14T11:18:28Z</time></trkpt><trkpt lat="51.861600" lon="-2.054304"><ele>244.31</ele><time>2011-09-14T11:18:38Z</time></trkpt><trkpt lat="51.861544" lon="-2.054118"><ele>244.31</ele><time>2011-09-14T11:18:47Z</time></trkpt><trkpt lat="51.861462" lon="-2.054007"><ele>243.83</ele><time>2011-09-14T11:18:55Z</time></trkpt><trkpt lat="51.861426" lon="-2.053949"><ele>244.31</ele><time>2011-09-14T11:18:59Z</time></trkpt><trkpt lat="51.861323" lon="-2.053782"><ele>244.31</ele><time>2011-09-14T11:19:11Z</time></trkpt><trkpt lat="51.861240" lon="-2.053621"><ele>243.83</ele><time>2011-09-14T11:19:22Z</time></trkpt><trkpt lat="51.861142" lon="-2.053466"><ele>244.31</ele><time>2011-09-14T11:19:34Z</time></trkpt><trkpt lat="51.861077" lon="-2.053377"><ele>243.83</ele><time>2011-09-14T11:19:42Z</time></trkpt><trkpt lat="51.861006" lon="-2.053284"><ele>243.83</ele><time>2011-09-14T11:19:51Z</time></trkpt><trkpt lat="51.860976" lon="-2.053256"><ele>242.87</ele><time>2011-09-14T11:19:58Z</time></trkpt><trkpt lat="51.860864" lon="-2.053088"><ele>241.91</ele><time>2011-09-14T11:20:10Z</time></trkpt><trkpt lat="51.860738" lon="-2.052936"><ele>240.95</ele><time>2011-09-14T11:20:23Z</time></trkpt><trkpt lat="51.860653" lon="-2.052841"><ele>239.51</ele><time>2011-09-14T11:20:32Z</time></trkpt><trkpt lat="51.860565" lon="-2.052719"><ele>239.02</ele><time>2011-09-14T11:20:42Z</time></trkpt><trkpt lat="51.860460" lon="-2.052579"><ele>239.51</ele><time>2011-09-14T11:20:54Z</time></trkpt><trkpt lat="51.860361" lon="-2.052448"><ele>238.06</ele><time>2011-09-14T11:21:05Z</time></trkpt><trkpt lat="51.860253" lon="-2.052286"><ele>237.10</ele><time>2011-09-14T11:21:18Z</time></trkpt><trkpt lat="51.860158" lon="-2.052126"><ele>235.18</ele><time>2011-09-14T11:21:30Z</time></trkpt><trkpt lat="51.860120" lon="-2.051944"><ele>233.74</ele><time>2011-09-14T11:21:40Z</time></trkpt><trkpt lat="51.860136" lon="-2.051773"><ele>234.22</ele><time>2011-09-14T11:21:49Z</time></trkpt><trkpt lat="51.860131" lon="-2.051611"><ele>233.74</ele><time>2011-09-14T11:21:58Z</time></trkpt><trkpt lat="51.860053" lon="-2.051449"><ele>230.85</ele><time>2011-09-14T11:22:09Z</time></trkpt><trkpt lat="51.860036" lon="-2.051423"><ele>230.37</ele><time>2011-09-14T11:22:11Z</time></trkpt><trkpt lat="51.860010" lon="-2.051305"><ele>227.49</ele><time>2011-09-14T11:22:18Z</time></trkpt><trkpt lat="51.860005" lon="-2.051167"><ele>225.09</ele><time>2011-09-14T11:22:25Z</time></trkpt><trkpt lat="51.859947" lon="-2.051091"><ele>226.05</ele><time>2011-09-14T11:22:32Z</time></trkpt><trkpt lat="51.859842" lon="-2.051022"><ele>227.97</ele><time>2011-09-14T11:22:42Z</time></trkpt><trkpt lat="51.859738" lon="-2.050963"><ele>229.41</ele><time>2011-09-14T11:22:50Z</time></trkpt><trkpt lat="51.859691" lon="-2.050939"><ele>230.37</ele><time>2011-09-14T11:22:54Z</time></trkpt><trkpt lat="51.859596" lon="-2.050873"><ele>232.78</ele><time>2011-09-14T11:23:03Z</time></trkpt><trkpt lat="51.859541" lon="-2.050819"><ele>233.26</ele><time>2011-09-14T11:23:10Z</time></trkpt><trkpt lat="51.859453" lon="-2.050755"><ele>234.70</ele><time>2011-09-14T11:23:19Z</time></trkpt><trkpt lat="51.859391" lon="-2.050686"><ele>235.18</ele><time>2011-09-14T11:23:25Z</time></trkpt><trkpt lat="51.859328" lon="-2.050631"><ele>235.66</ele><time>2011-09-14T11:23:33Z</time></trkpt><trkpt lat="51.859199" lon="-2.050529"><ele>234.70</ele><time>2011-09-14T11:23:43Z</time></trkpt><trkpt lat="51.859127" lon="-2.050477"><ele>233.74</ele><time>2011-09-14T11:23:50Z</time></trkpt><trkpt lat="51.859041" lon="-2.050385"><ele>232.78</ele><time>2011-09-14T11:23:59Z</time></trkpt><trkpt lat="51.858946" lon="-2.050309"><ele>233.26</ele><time>2011-09-14T11:24:07Z</time></trkpt><trkpt lat="51.858838" lon="-2.050206"><ele>233.74</ele><time>2011-09-14T11:24:17Z</time></trkpt><trkpt lat="51.858760" lon="-2.050130"><ele>232.78</ele><time>2011-09-14T11:24:26Z</time></trkpt><trkpt lat="51.858696" lon="-2.050093"><ele>233.26</ele><time>2011-09-14T11:24:33Z</time></trkpt><trkpt lat="51.858604" lon="-2.049992"><ele>234.22</ele><time>2011-09-14T11:24:44Z</time></trkpt><trkpt lat="51.858494" lon="-2.049934"><ele>233.74</ele><time>2011-09-14T11:24:53Z</time></trkpt><trkpt lat="51.858416" lon="-2.049889"><ele>233.26</ele><time>2011-09-14T11:25:02Z</time></trkpt><trkpt lat="51.858335" lon="-2.049851"><ele>234.70</ele><time>2011-09-14T11:25:10Z</time></trkpt><trkpt lat="51.858209" lon="-2.049768"><ele>233.74</ele><time>2011-09-14T11:25:20Z</time></trkpt><trkpt lat="51.858119" lon="-2.049711"><ele>232.30</ele><time>2011-09-14T11:25:28Z</time></trkpt><trkpt lat="51.858014" lon="-2.049630"><ele>231.33</ele><time>2011-09-14T11:25:38Z</time></trkpt><trkpt lat="51.857908" lon="-2.049563"><ele>229.89</ele><time>2011-09-14T11:25:48Z</time></trkpt><trkpt lat="51.857803" lon="-2.049500"><ele>229.41</ele><time>2011-09-14T11:25:58Z</time></trkpt><trkpt lat="51.857725" lon="-2.049450"><ele>228.93</ele><time>2011-09-14T11:26:06Z</time></trkpt><trkpt lat="51.857653" lon="-2.049406"><ele>228.93</ele><time>2011-09-14T11:26:13Z</time></trkpt><trkpt lat="51.857543" lon="-2.049364"><ele>227.97</ele><time>2011-09-14T11:26:24Z</time></trkpt><trkpt lat="51.857425" lon="-2.049302"><ele>226.53</ele><time>2011-09-14T11:26:35Z</time></trkpt><trkpt lat="51.857324" lon="-2.049253"><ele>225.57</ele><time>2011-09-14T11:26:45Z</time></trkpt><trkpt lat="51.857199" lon="-2.049186"><ele>225.09</ele><time>2011-09-14T11:26:57Z</time></trkpt><trkpt lat="51.857162" lon="-2.049202"><ele>225.09</ele><time>2011-09-14T11:27:03Z</time></trkpt><trkpt lat="51.857080" lon="-2.049147"><ele>224.12</ele><time>2011-09-14T11:27:12Z</time></trkpt><trkpt lat="51.857000" lon="-2.049099"><ele>224.12</ele><time>2011-09-14T11:27:19Z</time></trkpt><trkpt lat="51.856849" lon="-2.049029"><ele>223.64</ele><time>2011-09-14T11:27:33Z</time></trkpt><trkpt lat="51.856734" lon="-2.048981"><ele>222.68</ele><time>2011-09-14T11:27:44Z</time></trkpt><trkpt lat="51.856653" lon="-2.048951"><ele>221.72</ele><time>2011-09-14T11:27:52Z</time></trkpt><trkpt lat="51.856542" lon="-2.048901"><ele>222.68</ele><time>2011-09-14T11:28:01Z</time></trkpt><trkpt lat="51.856457" lon="-2.048853"><ele>222.20</ele><time>2011-09-14T11:28:09Z</time></trkpt><trkpt lat="51.856350" lon="-2.048813"><ele>221.72</ele><time>2011-09-14T11:28:19Z</time></trkpt><trkpt lat="51.856230" lon="-2.048755"><ele>220.76</ele><time>2011-09-14T11:28:30Z</time></trkpt><trkpt lat="51.856101" lon="-2.048684"><ele>219.80</ele><time>2011-09-14T11:28:42Z</time></trkpt><trkpt lat="51.855967" lon="-2.048625"><ele>219.80</ele><time>2011-09-14T11:28:54Z</time></trkpt><trkpt lat="51.855882" lon="-2.048586"><ele>219.32</ele><time>2011-09-14T11:29:03Z</time></trkpt><trkpt lat="51.855797" lon="-2.048545"><ele>220.28</ele><time>2011-09-14T11:29:12Z</time></trkpt><trkpt lat="51.855711" lon="-2.048508"><ele>220.28</ele><time>2011-09-14T11:29:21Z</time></trkpt><trkpt lat="51.855625" lon="-2.048445"><ele>219.80</ele><time>2011-09-14T11:29:30Z</time></trkpt><trkpt lat="51.855533" lon="-2.048401"><ele>220.76</ele><time>2011-09-14T11:29:39Z</time></trkpt><trkpt lat="51.855451" lon="-2.048342"><ele>221.72</ele><time>2011-09-14T11:29:49Z</time></trkpt><trkpt lat="51.855356" lon="-2.048291"><ele>222.68</ele><time>2011-09-14T11:29:57Z</time></trkpt><trkpt lat="51.855288" lon="-2.048271"><ele>222.68</ele><time>2011-09-14T11:30:02Z</time></trkpt><trkpt lat="51.855162" lon="-2.048216"><ele>221.24</ele><time>2011-09-14T11:30:11Z</time></trkpt><trkpt lat="51.855033" lon="-2.048164"><ele>218.84</ele><time>2011-09-14T11:30:22Z</time></trkpt><trkpt lat="51.854908" lon="-2.048086"><ele>216.91</ele><time>2011-09-14T11:30:34Z</time></trkpt><trkpt lat="51.854782" lon="-2.048000"><ele>215.95</ele><time>2011-09-14T11:30:46Z</time></trkpt><trkpt lat="51.854694" lon="-2.047974"><ele>214.99</ele><time>2011-09-14T11:30:54Z</time></trkpt><trkpt lat="51.854580" lon="-2.047921"><ele>213.55</ele><time>2011-09-14T11:31:05Z</time></trkpt><trkpt lat="51.854472" lon="-2.047865"><ele>211.15</ele><time>2011-09-14T11:31:15Z</time></trkpt><trkpt lat="51.854369" lon="-2.047819"><ele>209.70</ele><time>2011-09-14T11:31:24Z</time></trkpt><trkpt lat="51.854270" lon="-2.047785"><ele>208.74</ele><time>2011-09-14T11:31:33Z</time></trkpt><trkpt lat="51.854200" lon="-2.047770"><ele>208.74</ele><time>2011-09-14T11:31:40Z</time></trkpt><trkpt lat="51.854099" lon="-2.047760"><ele>207.78</ele><time>2011-09-14T11:31:50Z</time></trkpt><trkpt lat="51.853980" lon="-2.047749"><ele>207.78</ele><time>2011-09-14T11:32:01Z</time></trkpt><trkpt lat="51.853865" lon="-2.047718"><ele>207.78</ele><time>2011-09-14T11:32:11Z</time></trkpt><trkpt lat="51.853745" lon="-2.047677"><ele>207.30</ele><time>2011-09-14T11:32:22Z</time></trkpt><trkpt lat="51.853629" lon="-2.047654"><ele>207.78</ele><time>2011-09-14T11:32:31Z</time></trkpt><trkpt lat="51.853566" lon="-2.047641"><ele>207.30</ele><time>2011-09-14T11:32:37Z</time></trkpt><trkpt lat="51.853480" lon="-2.047622"><ele>206.82</ele><time>2011-09-14T11:32:45Z</time></trkpt><trkpt lat="51.853418" lon="-2.047611"><ele>207.30</ele><time>2011-09-14T11:32:52Z</time></trkpt><trkpt lat="51.853303" lon="-2.047628"><ele>211.15</ele><time>2011-09-14T11:33:02Z</time></trkpt><trkpt lat="51.853142" lon="-2.047598"><ele>213.07</ele><time>2011-09-14T11:33:13Z</time></trkpt><trkpt lat="51.853049" lon="-2.047629"><ele>214.03</ele><time>2011-09-14T11:33:22Z</time></trkpt><trkpt lat="51.852998" lon="-2.047637"><ele>213.55</ele><time>2011-09-14T11:33:28Z</time></trkpt><trkpt lat="51.852915" lon="-2.047634"><ele>212.11</ele><time>2011-09-14T11:33:35Z</time></trkpt><trkpt lat="51.852812" lon="-2.047645"><ele>212.11</ele><time>2011-09-14T11:33:45Z</time></trkpt><trkpt lat="51.852719" lon="-2.047650"><ele>211.63</ele><time>2011-09-14T11:33:54Z</time></trkpt><trkpt lat="51.852595" lon="-2.047609"><ele>212.59</ele><time>2011-09-14T11:34:06Z</time></trkpt><trkpt lat="51.852468" lon="-2.047587"><ele>212.11</ele><time>2011-09-14T11:34:18Z</time></trkpt><trkpt lat="51.852369" lon="-2.047593"><ele>210.67</ele><time>2011-09-14T11:34:27Z</time></trkpt><trkpt lat="51.852304" lon="-2.047611"><ele>210.19</ele><time>2011-09-14T11:34:34Z</time></trkpt><trkpt lat="51.852237" lon="-2.047671"><ele>209.22</ele><time>2011-09-14T11:34:43Z</time></trkpt><trkpt lat="51.852146" lon="-2.047698"><ele>208.74</ele><time>2011-09-14T11:34:53Z</time></trkpt><trkpt lat="51.852020" lon="-2.047743"><ele>206.34</ele><time>2011-09-14T11:35:03Z</time></trkpt><trkpt lat="51.851946" lon="-2.047816"><ele>206.34</ele><time>2011-09-14T11:35:11Z</time></trkpt><trkpt lat="51.851915" lon="-2.047853"><ele>205.86</ele><time>2011-09-14T11:35:15Z</time></trkpt><trkpt lat="51.851822" lon="-2.047822"><ele>208.26</ele><time>2011-09-14T11:35:25Z</time></trkpt><trkpt lat="51.851772" lon="-2.047808"><ele>207.78</ele><time>2011-09-14T11:35:31Z</time></trkpt><trkpt lat="51.851755" lon="-2.047821"><ele>207.78</ele><time>2011-09-14T11:35:33Z</time></trkpt><trkpt lat="51.851732" lon="-2.047859"><ele>208.74</ele><time>2011-09-14T11:35:37Z</time></trkpt><trkpt lat="51.851736" lon="-2.047710"><ele>209.70</ele><time>2011-09-14T11:35:47Z</time></trkpt><trkpt lat="51.851723" lon="-2.047659"><ele>210.19</ele><time>2011-09-14T11:35:54Z</time></trkpt><trkpt lat="51.851719" lon="-2.047645"><ele>209.70</ele><time>2011-09-14T11:36:02Z</time></trkpt><trkpt lat="51.851685" lon="-2.047673"><ele>209.22</ele><time>2011-09-14T11:36:09Z</time></trkpt><trkpt lat="51.851702" lon="-2.047721"><ele>207.78</ele><time>2011-09-14T11:36:15Z</time></trkpt><trkpt lat="51.851708" lon="-2.047735"><ele>207.30</ele><time>2011-09-14T11:36:16Z</time></trkpt><trkpt lat="51.851703" lon="-2.047909"><ele>207.30</ele><time>2011-09-14T11:36:25Z</time></trkpt><trkpt lat="51.851656" lon="-2.048106"><ele>207.78</ele><time>2011-09-14T11:36:36Z</time></trkpt><trkpt lat="51.851629" lon="-2.048170"><ele>208.26</ele><time>2011-09-14T11:36:40Z</time></trkpt><trkpt lat="51.851591" lon="-2.048288"><ele>208.26</ele><time>2011-09-14T11:36:47Z</time></trkpt><trkpt lat="51.851523" lon="-2.048444"><ele>208.26</ele><time>2011-09-14T11:36:57Z</time></trkpt><trkpt lat="51.851446" lon="-2.048641"><ele>202.49</ele><time>2011-09-14T11:37:10Z</time></trkpt><trkpt lat="51.851398" lon="-2.048797"><ele>202.49</ele><time>2011-09-14T11:37:20Z</time></trkpt><trkpt lat="51.851355" lon="-2.048924"><ele>202.49</ele><time>2011-09-14T11:37:28Z</time></trkpt><trkpt lat="51.851328" lon="-2.049005"><ele>202.98</ele><time>2011-09-14T11:37:33Z</time></trkpt><trkpt lat="51.851291" lon="-2.049152"><ele>203.94</ele><time>2011-09-14T11:37:41Z</time></trkpt><trkpt lat="51.851269" lon="-2.049052"><ele>203.94</ele><time>2011-09-14T11:37:49Z</time></trkpt><trkpt lat="51.851289" lon="-2.048858"><ele>203.46</ele><time>2011-09-14T11:37:59Z</time></trkpt><trkpt lat="51.851286" lon="-2.048773"><ele>202.49</ele><time>2011-09-14T11:38:04Z</time></trkpt><trkpt lat="51.851263" lon="-2.048652"><ele>202.01</ele><time>2011-09-14T11:38:12Z</time></trkpt><trkpt lat="51.851274" lon="-2.048589"><ele>202.98</ele><time>2011-09-14T11:38:18Z</time></trkpt><trkpt lat="51.851206" lon="-2.048476"><ele>204.42</ele><time>2011-09-14T11:38:28Z</time></trkpt><trkpt lat="51.851204" lon="-2.048397"><ele>204.90</ele><time>2011-09-14T11:38:35Z</time></trkpt><trkpt lat="51.851184" lon="-2.048394"><ele>203.46</ele><time>2011-09-14T11:38:50Z</time></trkpt><trkpt lat="51.851181" lon="-2.048393"><ele>203.46</ele><time>2011-09-14T11:38:51Z</time></trkpt></trkseg></trk></gpx>